Provisional Data: Sugar Run near Sugar Run, PA


Please select a monitoring station.
Please select start date.
Please select start date.

Toggle Unit: C/F Toggle Unit: C/F
Sample Time Temperature (C) Temperature (F) Specific Conductivity (mS/cm) pH   Turbidity (NTU+) DO (mg/L)
5/17/2022 12:00:00 AM 17.94 64.292 0.121 7.53 10.81 8.45
5/17/2022 12:15:00 AM 17.92 64.256 0.121 7.51 9.64 8.46
5/17/2022 12:30:00 AM 17.88 64.184 0.121 7.53 9.43 8.46
5/17/2022 12:45:00 AM 17.81 64.058 0.121 7.52 9.2 8.44
5/17/2022 1:00:00 AM 17.74 63.932 0.121 7.52 8.97 8.49
5/17/2022 1:15:00 AM 17.66 63.788 0.121 7.52 9.36 8.48
5/17/2022 1:30:00 AM 17.6 63.68 0.121 7.52 7.94 8.47
5/17/2022 1:45:00 AM 17.54 63.572 0.121 7.51 9.27 8.47
5/17/2022 2:00:00 AM 17.48 63.464 0.121 7.51 8.91 8.48
5/17/2022 2:15:00 AM 17.41 63.338 0.122 7.49 8.87 8.52
5/17/2022 2:30:00 AM 17.36 63.248 0.122 7.51 9.66 8.49
5/17/2022 2:45:00 AM 17.29 63.122 0.122 7.51 9.8 8.51
5/17/2022 3:00:00 AM 17.23 63.014 0.122 7.51 8.2 8.52
5/17/2022 3:15:00 AM 17.15 62.87 0.121 7.5 9.1 8.55
5/17/2022 3:30:00 AM 17.09 62.762 0.122 7.48 7.97 8.55
5/17/2022 3:45:00 AM 17.05 62.69 0.122 7.5 7.7 8.49
5/17/2022 4:00:00 AM 16.95 62.51 0.122 7.5 9.46 8.54
5/17/2022 4:15:00 AM 16.89 62.402 0.122 7.5 8.85 8.55
5/17/2022 4:30:00 AM 16.81 62.258 0.122 7.5 9.16 8.59
5/17/2022 4:45:00 AM 16.77 62.186 0.122 7.5 7.66 8.57
5/17/2022 5:00:00 AM 16.71 62.078 0.122 7.5 7.42 8.54
5/17/2022 5:15:00 AM 16.65 61.97 0.122 7.49 7.79 8.58
5/17/2022 5:30:00 AM 16.56 61.808 0.122 7.49 8.04 8.61
5/17/2022 5:45:00 AM 16.5 61.7 0.122 7.48 7.76 8.61
5/17/2022 6:00:00 AM 16.39 61.502 0.122 7.5 8.61 8.66
5/17/2022 6:15:00 AM 16.32 61.376 0.122 7.5 8 8.68
5/17/2022 6:30:00 AM 16.24 61.232 0.122 7.5 7.41 8.7
5/17/2022 6:45:00 AM 16.19 61.142 0.122 7.5 7.42 8.71
5/17/2022 7:00:00 AM 16.13 61.034 0.122 7.51 7.27 8.75
5/17/2022 7:15:00 AM 16.11 60.998 0.122 7.52 7.98 8.8
5/17/2022 7:30:00 AM 16.1 60.98 0.122 7.53 6.85 8.81
5/17/2022 7:45:00 AM 16.08 60.944 0.122 7.54 7.31 8.85
5/17/2022 8:00:00 AM 16.05 60.89 0.122 7.54 7.05 8.88
5/17/2022 8:15:00 AM 16.04 60.872 0.122 7.55 7.08 8.88
5/17/2022 8:30:00 AM 16.06 60.908 0.122 7.57 7.35 9.02
5/17/2022 8:45:00 AM 16.1 60.98 0.122 7.58 7 9.07
5/17/2022 9:00:00 AM 16.19 61.142 0.122 7.59 7.12 9.08
5/17/2022 9:15:00 AM 16.23 61.214 0.122 7.61 6.84 9.17
5/17/2022 9:30:00 AM 16.22 61.196 0.122 7.62 7.31 9.16
5/17/2022 9:45:00 AM 16.28 61.304 0.122 7.62 6.67 9.16
5/17/2022 10:00:00 AM 16.37 61.466 0.122 7.62 6 9.25
5/17/2022 10:15:00 AM 16.52 61.736 0.122 7.65 6.78 9.25
5/17/2022 10:30:00 AM 16.63 61.934 0.122 7.67 6.49 9.29
5/17/2022 10:45:00 AM 16.68 62.024 0.121 7.68 6.77 9.28
5/17/2022 11:00:00 AM 16.72 62.096 0.121 7.68 6.4 9.24
5/17/2022 11:15:00 AM 16.81 62.258 0.121 7.7 7.04 9.3
5/17/2022 11:30:00 AM 16.88 62.384 0.121 7.7 6.78 9.26
5/17/2022 11:45:00 AM 16.9 62.42 0.121 7.68 5.77 9.19
5/17/2022 12:00:00 PM 16.85 62.33 0.121 7.69 6.09 9.17
5/17/2022 12:15:00 PM 16.83 62.294 0.121 7.69 6.49 9.16
5/17/2022 12:30:00 PM 16.86 62.348 0.121 7.69 7.02 9.14
5/17/2022 12:45:00 PM 17.01 62.618 0.121 7.69 6.35 9.18
5/17/2022 1:00:00 PM 17.15 62.87 0.121 7.7 5.87 9.19
5/17/2022 1:15:00 PM 17.39 63.302 0.121 7.69 6.53 9.21
5/17/2022 1:30:00 PM 17.54 63.572 0.121 7.72 6.27 9.18
5/17/2022 1:45:00 PM 17.61 63.698 0.121 7.72 6.7 9.15
5/17/2022 2:00:00 PM 17.8 64.04 0.121 7.73 6.54 9.18
5/17/2022 2:15:00 PM 17.88 64.184 0.121 7.72 5.92 9.16
5/17/2022 2:30:00 PM 17.99 64.382 0.121 7.75 6.47 9.19
5/17/2022 2:45:00 PM 17.99 64.382 0.121 7.75 6.09 9.12
5/17/2022 3:00:00 PM 18.05 64.49 0.121 7.76 6.49 9.13
5/17/2022 3:15:00 PM 18.14 64.652 0.121 7.76 6.09 9.14
5/17/2022 3:30:00 PM 18.21 64.778 0.121 7.75 6.63 9.1
5/17/2022 3:45:00 PM 18.18 64.724 0.121 7.76 6.17 9.05
5/17/2022 4:00:00 PM 18.19 64.742 0.121 7.74 5.66 9.04
5/17/2022 4:15:00 PM 18.15 64.67 0.121 7.73 6.11 8.99
5/17/2022 4:30:00 PM 18.09 64.562 0.121 7.74 5.59 8.96
5/17/2022 4:45:00 PM 17.97 64.346 0.121 7.72 5.87 8.9
5/17/2022 5:00:00 PM 17.9 64.22 0.121 7.7 5.98 8.86
5/17/2022 5:15:00 PM 17.83 64.094 0.121 7.71 5.99 8.9
5/17/2022 5:30:00 PM 17.77 63.986 0.121 7.7 5.67 8.85
5/17/2022 5:45:00 PM 17.72 63.896 0.121 7.69 5.86 8.88
5/17/2022 6:00:00 PM 17.67 63.806 0.121 7.69 5.67 8.87
5/17/2022 6:15:00 PM 17.63 63.734 0.121 7.67 5.75 8.86
5/17/2022 6:30:00 PM 17.55 63.59 0.121 7.67 6.38 8.8
5/17/2022 6:45:00 PM 17.45 63.41 0.121 7.66 5.44 8.82
5/17/2022 7:00:00 PM 17.36 63.248 0.121 7.65 5.49 8.76
5/17/2022 7:15:00 PM 17.28 63.104 0.121 7.64 5.67 8.75
5/17/2022 7:30:00 PM 17.21 62.978 0.121 7.62 5.46 8.71
5/17/2022 7:45:00 PM 17.15 62.87 0.121 7.58 5.75 8.66
5/17/2022 8:00:00 PM 17.07 62.726 0.121 7.6 5.65 8.68
5/17/2022 8:15:00 PM 16.99 62.582 0.121 7.58 5.52 8.63
5/17/2022 8:30:00 PM 16.91 62.438 0.121 7.57 5.75 8.61
5/17/2022 8:45:00 PM 16.84 62.312 0.121 7.56 5.52 8.59
5/17/2022 9:00:00 PM 16.75 62.15 0.121 7.55 5.38 8.59
5/17/2022 9:15:00 PM 16.68 62.024 0.121 7.54 5.98 8.56
5/17/2022 9:30:00 PM 16.61 61.898 0.121 7.53 5.73 8.57
5/17/2022 9:45:00 PM 16.53 61.754 0.121 7.52 5.57 8.57
5/17/2022 10:00:00 PM 16.45 61.61 0.121 7.51 5.55 8.6
5/17/2022 10:15:00 PM 16.38 61.484 0.121 7.51 6.06 8.6
5/17/2022 10:30:00 PM 16.3 61.34 0.121 7.49 6 8.64
5/17/2022 10:45:00 PM 16.25 61.25 0.121 7.5 5.39 8.61
5/17/2022 11:00:00 PM 16.2 61.16 0.121 7.5 5.4 8.62
5/17/2022 11:15:00 PM 16.14 61.052 0.121 7.5 5.6 8.65
5/17/2022 11:30:00 PM 16.1 60.98 0.121 7.47 6.04 8.63
5/17/2022 11:45:00 PM 16.07 60.926 0.121 7.49 5.78 8.63
5/18/2022 12:00:00 AM 16.05 60.89 0.121 7.49 6.16 8.62
5/18/2022 12:15:00 AM 16.03 60.854 0.121 7.49 5.69 8.63
5/18/2022 12:30:00 AM 16.01 60.818 0.121 7.48 6.49 8.61
5/18/2022 12:45:00 AM 15.98 60.764 0.121 7.48 5.48 8.63
5/18/2022 1:00:00 AM 15.94 60.692 0.121 7.46 5.62 8.65
5/18/2022 1:15:00 AM 15.9 60.62 0.121 7.48 5.55 8.66
5/18/2022 1:30:00 AM 15.87 60.566 0.121 7.48 5.44 8.63
5/18/2022 1:45:00 AM 15.83 60.494 0.122 7.47 5.46 8.66
5/18/2022 2:00:00 AM 15.79 60.422 0.122 7.47 5.69 8.63
5/18/2022 2:15:00 AM 15.75 60.35 0.122 7.47 5.87 8.62
5/18/2022 2:30:00 AM 15.69 60.242 0.122 7.48 5.31 8.69
5/18/2022 2:45:00 AM 15.65 60.17 0.122 7.48 5.85 8.68
5/18/2022 3:00:00 AM 15.62 60.116 0.122 7.48 5.63 8.67
5/18/2022 3:15:00 AM 15.56 60.008 0.122 7.47 5.29 8.69
5/18/2022 3:30:00 AM 15.51 59.918 0.122 7.47 5.36 8.69
5/18/2022 3:45:00 AM 15.45 59.81 0.122 7.47 5.19 8.71
5/18/2022 4:00:00 AM 15.39 59.702 0.122 7.47 5.41 8.71
5/18/2022 4:15:00 AM 15.33 59.594 0.122 7.46 5.21 8.72
5/18/2022 4:30:00 AM 15.28 59.504 0.122 7.41 5.64 8.72
5/18/2022 4:45:00 AM 15.19 59.342 0.122 7.45 5.54 8.8
5/18/2022 5:00:00 AM 15.15 59.27 0.122 7.45 5.77 8.75
5/18/2022 5:15:00 AM 15.08 59.144 0.122 7.45 5.89 8.78
5/18/2022 5:30:00 AM 14.99 58.982 0.122 7.45 5.02 8.79
5/18/2022 5:45:00 AM 14.94 58.892 0.122 7.45 5.29 8.79
5/18/2022 6:00:00 AM 14.87 58.766 0.122 7.46 5.53 8.81
5/18/2022 6:15:00 AM 14.81 58.658 0.122 7.43 5.02 8.81
5/18/2022 6:30:00 AM 14.74 58.532 0.122 7.46 5.06 8.86
5/18/2022 6:45:00 AM 14.68 58.424 0.122 7.42 5.38 8.87
5/18/2022 7:00:00 AM 14.62 58.316 0.122 7.44 5.15 8.9
5/18/2022 7:15:00 AM 14.57 58.226 0.122 7.45 5.31 8.98
5/18/2022 7:30:00 AM 14.56 58.208 0.123 7.44 5.82 8.95
5/18/2022 7:45:00 AM 14.55 58.19 0.123 7.46 5.03 8.94
5/18/2022 8:00:00 AM 14.52 58.136 0.123 7.46 5.32 9.02
5/18/2022 8:15:00 AM 14.52 58.136 0.123 7.48 4.86 9.08
5/18/2022 8:30:00 AM 14.58 58.244 0.123 7.46 5.4 9.11
5/18/2022 8:45:00 AM 14.61 58.298 0.123 7.5 4.88 9.17
5/18/2022 9:00:00 AM 14.68 58.424 0.122 7.52 5.12 9.23
5/18/2022 9:15:00 AM 14.8 58.64 0.122 7.54 6.03 9.33
5/18/2022 9:30:00 AM 14.9 58.82 0.122 7.54 5.16 9.33
5/18/2022 9:45:00 AM 15.02 59.036 0.122 7.55 4.82 9.36
5/18/2022 10:00:00 AM 15.16 59.288 0.122 7.56 5.58 9.35
5/18/2022 10:15:00 AM 15.34 59.612 0.122 7.57 5.01 9.42
5/18/2022 10:30:00 AM 15.48 59.864 0.122 7.6 4.6 9.42
5/18/2022 10:45:00 AM 15.65 60.17 0.122 7.59 4.99 9.43
5/18/2022 11:00:00 AM 15.84 60.512 0.122 7.62 4.78 9.41
5/18/2022 11:15:00 AM 16.07 60.926 0.122 7.62 4.49 9.44
5/18/2022 11:30:00 AM 16.27 61.286 0.122 7.64 4.4 9.43
5/18/2022 11:45:00 AM 16.5 61.7 0.122 7.66 5.08 9.43
5/18/2022 12:00:00 PM 16.72 62.096 0.122 7.68 4.62 9.43
5/18/2022 12:15:00 PM 16.85 62.33 0.122 7.67 4.55 9.4
5/18/2022 12:30:00 PM 17.12 62.816 0.122 7.69 4.36 9.39
5/18/2022 12:45:00 PM 17.27 63.086 0.122 7.7 5.18 9.37
5/18/2022 1:00:00 PM 17.52 63.536 0.122 7.71 5.02 9.37
5/18/2022 1:15:00 PM 17.62 63.716 0.122 7.73 4.8 9.33
5/18/2022 1:30:00 PM 17.68 63.824 0.123 7.75 4.59 9.31
5/18/2022 1:45:00 PM 17.62 63.716 0.123 7.74 4.66 9.24
5/18/2022 2:00:00 PM 17.58 63.644 0.123 7.74 4.55 9.28
5/18/2022 2:15:00 PM 17.51 63.518 0.123 7.75 4.32 9.22
5/18/2022 2:30:00 PM 17.39 63.302 0.123 7.73 4.8 9.18
5/18/2022 2:45:00 PM 17.3 63.14 0.123 7.73 5.01 9.2
5/18/2022 3:00:00 PM 17.26 63.068 0.123 7.73 4.65 9.15
5/18/2022 3:15:00 PM 17.17 62.906 0.123 7.72 4.75 9.12
5/18/2022 3:30:00 PM 17.11 62.798 0.123 7.69 4.62 9.09
5/18/2022 3:45:00 PM 17.1 62.78 0.123 7.72 5.15 9.13
5/18/2022 4:00:00 PM 17.07 62.726 0.123 7.71 4.66 9.1
5/18/2022 4:15:00 PM 17.05 62.69 0.123 7.71 4.69 9.11
5/18/2022 4:30:00 PM 17 62.6 0.124 7.7 4.6 9.05
5/18/2022 4:45:00 PM 16.92 62.456 0.124 7.67 4.92 9
5/18/2022 5:00:00 PM 16.87 62.366 0.124 7.66 4.64 8.94
5/18/2022 5:15:00 PM 16.75 62.15 0.124 7.66 4.72 8.92
5/18/2022 5:30:00 PM 16.65 61.97 0.124 7.62 5.89 8.86
5/18/2022 5:45:00 PM 16.53 61.754 0.124 7.62 5.29 8.83
5/18/2022 6:00:00 PM 16.43 61.574 0.124 7.61 5.02 8.82
5/18/2022 6:15:00 PM 16.36 61.448 0.124 7.6 5.73 8.86
5/18/2022 6:30:00 PM 16.31 61.358 0.124 7.59 5.73 8.84
5/18/2022 6:45:00 PM 16.26 61.268 0.124 7.6 5.24 8.87
5/18/2022 7:00:00 PM 16.23 61.214 0.124 7.59 5.06 8.84
5/18/2022 7:15:00 PM 16.15 61.07 0.124 7.58 5.3 8.85
5/18/2022 7:30:00 PM 16.07 60.926 0.125 7.55 5.03 8.78
5/18/2022 7:45:00 PM 16.02 60.836 0.125 7.56 5.24 8.81
5/18/2022 8:00:00 PM 15.96 60.728 0.125 7.54 5.04 8.71
5/18/2022 8:15:00 PM 15.87 60.566 0.125 7.54 4.86 8.74
5/18/2022 8:30:00 PM 15.81 60.458 0.125 7.51 5.06 8.72
5/18/2022 8:45:00 PM 15.76 60.368 0.125 7.52 4.84 8.65
5/18/2022 9:00:00 PM 15.68 60.224 0.125 7.51 5.03 8.67
5/18/2022 9:15:00 PM 15.62 60.116 0.125 7.5 5.58 8.69
5/18/2022 9:30:00 PM 15.57 60.026 0.125 7.49 5.49 8.7
5/18/2022 9:45:00 PM 15.52 59.936 0.125 7.47 5.01 8.7
5/18/2022 10:00:00 PM 15.47 59.846 0.125 7.48 5.09 8.72
5/18/2022 10:15:00 PM 15.45 59.81 0.125 7.49 4.88 8.68
5/18/2022 10:30:00 PM 15.41 59.738 0.125 7.49 4.93 8.71
5/18/2022 10:45:00 PM 15.39 59.702 0.125 7.49 5.55 8.71
5/18/2022 11:00:00 PM 15.38 59.684 0.125 7.48 5.13 8.68
5/18/2022 11:15:00 PM 15.35 59.63 0.125 7.48 5.52 8.67
5/18/2022 11:30:00 PM 15.33 59.594 0.125 7.48 5.24 8.69
5/18/2022 11:45:00 PM 15.3 59.54 0.125 7.48 5.27 8.71
5/19/2022 12:00:00 AM 15.28 59.504 0.125 7.46 5.02 8.71
5/19/2022 12:15:00 AM 15.25 59.45 0.124 7.47 4.96 8.75
5/19/2022 12:30:00 AM 15.24 59.432 0.124 7.47 5.21 8.7
5/19/2022 12:45:00 AM 15.22 59.396 0.124 7.46 4.86 8.72
5/19/2022 1:00:00 AM 15.2 59.36 0.124 7.47 5.3 8.72
5/19/2022 1:15:00 AM 15.19 59.342 0.125 7.47 5.07 8.69
5/19/2022 1:30:00 AM 15.18 59.324 0.125 7.46 4.53 8.64
5/19/2022 1:45:00 AM 15.16 59.288 0.125 7.46 5.37 8.66
5/19/2022 2:00:00 AM 15.14 59.252 0.125 7.47 5.52 8.72
5/19/2022 2:15:00 AM 15.12 59.216 0.125 7.46 5.59 8.72
5/19/2022 2:30:00 AM 15.12 59.216 0.125 7.46 5.25 8.67
5/19/2022 2:45:00 AM 15.08 59.144 0.125 7.46 4.73 8.73
5/19/2022 3:00:00 AM 15.08 59.144 0.125 7.46 4.94 8.68
5/19/2022 3:15:00 AM 15.06 59.108 0.125 7.46 4.64 8.72
5/19/2022 3:30:00 AM 15.03 59.054 0.125 7.46 5.09 8.75
5/19/2022 3:45:00 AM 15.03 59.054 0.125 7.46 5.29 8.7
5/19/2022 4:00:00 AM 15.01 59.018 0.125 7.45 4.97 8.77
5/19/2022 4:15:00 AM 15 59 0.125 7.47 4.66 8.77
5/19/2022 4:30:00 AM 14.99 58.982 0.125 7.47 4.99 8.74
5/19/2022 4:45:00 AM 14.98 58.964 0.125 7.47 4.69 8.76
5/19/2022 5:00:00 AM 14.97 58.946 0.125 7.45 5.05 8.76
5/19/2022 5:15:00 AM 14.95 58.91 0.125 7.47 4.85 8.77
5/19/2022 5:30:00 AM 14.94 58.892 0.125 7.47 4.62 8.78
5/19/2022 5:45:00 AM 14.93 58.874 0.125 7.47 5.37 8.79
5/19/2022 6:00:00 AM 14.92 58.856 0.125 7.46 4.43 8.75
5/19/2022 6:15:00 AM 14.91 58.838 0.125 7.47 4.97 8.77
5/19/2022 6:30:00 AM 14.9 58.82 0.125 7.47 5.1 8.79
5/19/2022 6:45:00 AM 14.9 58.82 0.125 7.47 5.03 8.78
5/19/2022 7:00:00 AM 14.9 58.82 0.125 7.47 4.82 8.82
5/19/2022 7:15:00 AM 14.9 58.82 0.125 7.48 4.71 8.86
5/19/2022 7:30:00 AM 14.91 58.838 0.125 7.48 4.82 8.85
5/19/2022 7:45:00 AM 14.91 58.838 0.125 7.48 5.07 8.84
5/19/2022 8:00:00 AM 14.93 58.874 0.125 7.47 4.9 8.87
5/19/2022 8:15:00 AM 14.93 58.874 0.125 7.49 4.65 8.86
5/19/2022 8:30:00 AM 14.97 58.946 0.125 7.5 4.64 8.89
5/19/2022 8:45:00 AM 15.03 59.054 0.125 7.5 4.39 8.96
5/19/2022 9:00:00 AM 15.11 59.198 0.125 7.53 4.57 9.06
5/19/2022 9:15:00 AM 15.14 59.252 0.125 7.53 4.91 9.02
5/19/2022 9:30:00 AM 15.16 59.288 0.125 7.51 4.87 8.99
5/19/2022 9:45:00 AM 15.18 59.324 0.125 7.55 4.67 9.04
5/19/2022 10:00:00 AM 15.21 59.378 0.125 7.55 4.84 9.07
5/19/2022 10:15:00 AM 15.26 59.468 0.125 7.56 4.93 9.11
5/19/2022 10:30:00 AM 15.28 59.504 0.125 7.56 4.58 9.07
5/19/2022 10:45:00 AM 15.29 59.522 0.125 7.57 4.67 9.09
5/19/2022 11:00:00 AM 15.29 59.522 0.125 7.56 4.7 9.02
5/19/2022 11:15:00 AM 15.31 59.558 0.125 7.57 4.78 9.09
5/19/2022 11:30:00 AM 15.34 59.612 0.125 7.57 4.85 9.07
5/19/2022 11:45:00 AM 15.42 59.756 0.125 7.55 4.55 9.05
5/19/2022 12:00:00 PM 15.49 59.882 0.125 7.59 7.31 9.16
5/19/2022 12:15:00 PM 15.53 59.954 0.125 7.59 4.63 9.16
5/19/2022 12:30:00 PM 15.57 60.026 0.125 7.59 4.66 9.15
5/19/2022 12:45:00 PM 15.62 60.116 0.125 7.61 4.5 9.16
5/19/2022 1:00:00 PM 15.69 60.242 0.125 7.61 4.66 9.18
5/19/2022 1:15:00 PM 15.76 60.368 0.125 7.61 4.82 9.14
5/19/2022 1:30:00 PM 16.04 60.872 0.125 7.62 4.67 9.21
5/19/2022 1:45:00 PM 16.17 61.106 0.125 7.64 5.09 9.22
5/19/2022 2:00:00 PM 16.36 61.448 0.125 7.62 5.18 9.22
5/19/2022 2:15:00 PM 16.57 61.826 0.126 7.64 4.51 9.2
5/19/2022 2:30:00 PM 16.83 62.294 0.126 7.65 4.97 9.18
5/19/2022 2:45:00 PM 17.11 62.798 0.126 7.66 4.63 9.15
5/19/2022 3:00:00 PM 17.29 63.122 0.126 7.67 4.53 9.11
5/19/2022 3:15:00 PM 17.5 63.5 0.126 7.67 4.85 9.08
5/19/2022 3:30:00 PM 17.58 63.644 0.126 7.67 4.87 9.03
5/19/2022 3:45:00 PM 17.68 63.824 0.126 7.68 4.52 9.01
5/19/2022 4:00:00 PM 17.69 63.842 0.126 7.66 4.72 8.95
5/19/2022 4:15:00 PM 17.58 63.644 0.126 7.66 5.05 8.9
5/19/2022 4:30:00 PM 17.56 63.608 0.126 7.66 4.94 8.89
5/19/2022 4:45:00 PM 17.59 63.662 0.126 7.66 4.71 8.86
5/19/2022 5:00:00 PM 17.6 63.68 0.126 7.66 4.78 8.84
5/19/2022 5:15:00 PM 17.61 63.698 0.126 7.65 4.41 8.78
5/19/2022 5:30:00 PM 17.58 63.644 0.126 7.65 4.17 8.78
5/19/2022 5:45:00 PM 17.51 63.518 0.127 7.64 4.78 8.75
5/19/2022 6:00:00 PM 17.45 63.41 0.127 7.63 4.39 8.72
5/19/2022 6:15:00 PM 17.38 63.284 0.127 7.63 3.91 8.69
5/19/2022 6:30:00 PM 17.3 63.14 0.127 7.62 4.09 8.67
5/19/2022 6:45:00 PM 17.24 63.032 0.127 7.6 4.38 8.66
5/19/2022 7:00:00 PM 17.16 62.888 0.127 7.61 4.77 8.62
5/19/2022 7:15:00 PM 17.1 62.78 0.127 7.59 4.41 8.61
5/19/2022 7:30:00 PM 17.03 62.654 0.127 7.58 4.41 8.6
5/19/2022 7:45:00 PM 16.96 62.528 0.127 7.57 4.36 8.53
5/19/2022 8:00:00 PM 16.9 62.42 0.127 7.56 4.63 8.53
5/19/2022 8:15:00 PM 16.82 62.276 0.127 7.53 4.31 8.5
5/19/2022 8:30:00 PM 16.74 62.132 0.127 7.53 4.6 8.49
5/19/2022 8:45:00 PM 16.65 61.97 0.127 7.52 4.72 8.48
5/19/2022 9:00:00 PM 16.56 61.808 0.127 7.51 4.33 8.49
5/19/2022 9:15:00 PM 16.48 61.664 0.127 7.51 4.24 8.47
5/19/2022 9:30:00 PM 16.36 61.448 0.127 7.48 4.56 8.53
5/19/2022 9:45:00 PM 16.29 61.322 0.127 7.5 4.39 8.51
5/19/2022 10:00:00 PM 16.21 61.178 0.127 7.47 4.23 8.53
5/19/2022 10:15:00 PM 16.1 60.98 0.127 7.49 4.55 8.55
5/19/2022 10:30:00 PM 16.01 60.818 0.127 7.48 4.58 8.58
5/19/2022 10:45:00 PM 15.95 60.71 0.127 7.48 4.33 8.53
5/19/2022 11:00:00 PM 15.87 60.566 0.127 7.47 3.99 8.54
5/19/2022 11:15:00 PM 15.79 60.422 0.127 7.47 4.33 8.59
5/19/2022 11:30:00 PM 15.72 60.296 0.127 7.45 4.24 8.57
5/19/2022 11:45:00 PM 15.64 60.152 0.127 7.47 4.47 8.6
5/20/2022 12:00:00 AM 15.57 60.026 0.127 7.46 4.35 8.63
5/20/2022 12:15:00 AM 15.53 59.954 0.127 7.44 4.31 8.63
5/20/2022 12:30:00 AM 15.49 59.882 0.127 7.46 4.02 8.63
5/20/2022 12:45:00 AM 15.45 59.81 0.127 7.44 3.97 8.64
5/20/2022 1:00:00 AM 15.41 59.738 0.127 7.46 4.49 8.64
5/20/2022 1:15:00 AM 15.39 59.702 0.127 7.45 4.81 8.61
5/20/2022 1:30:00 AM 15.36 59.648 0.127 7.45 4.26 8.67
5/20/2022 1:45:00 AM 15.35 59.63 0.127 7.45 4.07 8.61
5/20/2022 2:00:00 AM 15.33 59.594 0.127 7.44 4.11 8.6
5/20/2022 2:15:00 AM 15.31 59.558 0.127 7.44 4.01 8.63
5/20/2022 2:30:00 AM 15.29 59.522 0.127 7.45 4.18 8.66
5/20/2022 2:45:00 AM 15.27 59.486 0.127 7.43 4.48 8.67
5/20/2022 3:00:00 AM 15.25 59.45 0.127 7.45 4.85 8.71
5/20/2022 3:15:00 AM 15.23 59.414 0.127 7.44 4.24 8.66
5/20/2022 3:30:00 AM 15.23 59.414 0.127 7.44 4.49 8.68
5/20/2022 3:45:00 AM 15.2 59.36 0.127 7.44 4.49 8.65
5/20/2022 4:00:00 AM 15.18 59.324 0.127 7.43 4.13 8.64
5/20/2022 4:15:00 AM 15.17 59.306 0.127 7.44 4.21 8.63
5/20/2022 4:30:00 AM 15.15 59.27 0.127 7.44 4.1 8.66
5/20/2022 4:45:00 AM 15.13 59.234 0.127 7.44 4.21 8.63
5/20/2022 5:00:00 AM 15.1 59.18 0.127 7.41 4.62 8.71
5/20/2022 5:15:00 AM 15.08 59.144 0.127 7.44 4.45 8.7
5/20/2022 5:30:00 AM 15.06 59.108 0.127 7.43 4.24 8.64
5/20/2022 5:45:00 AM 15.04 59.072 0.128 7.43 4.15 8.67
5/20/2022 6:00:00 AM 15.01 59.018 0.128 7.43 4.48 8.69
5/20/2022 6:15:00 AM 14.97 58.946 0.128 7.44 4.43 8.72
5/20/2022 6:30:00 AM 14.95 58.91 0.128 7.44 3.91 8.73
5/20/2022 6:45:00 AM 14.93 58.874 0.128 7.45 4.21 8.82
5/20/2022 7:00:00 AM 14.94 58.892 0.128 7.45 4.08 8.78
5/20/2022 7:15:00 AM 14.94 58.892 0.128 7.45 4.35 8.82
5/20/2022 7:30:00 AM 14.96 58.928 0.127 7.47 3.94 8.93
5/20/2022 7:45:00 AM 14.98 58.964 0.128 7.47 4.03 8.91
5/20/2022 8:00:00 AM 15.02 59.036 0.127 7.48 3.82 8.97
5/20/2022 8:15:00 AM 15.04 59.072 0.127 7.45 4.25 8.93
5/20/2022 8:30:00 AM 15.08 59.144 0.127 7.48 4.26 8.96
5/20/2022 8:45:00 AM 15.11 59.198 0.127 7.49 4.54 8.97
5/20/2022 9:00:00 AM 15.21 59.378 0.127 7.49 3.85 9.02
5/20/2022 9:15:00 AM 15.29 59.522 0.127 7.51 3.98 9.01
5/20/2022 9:30:00 AM 15.41 59.738 0.127 7.5 3.91 9.04
5/20/2022 9:45:00 AM 15.46 59.828 0.127 7.52 4.99 9.01
5/20/2022 10:00:00 AM 15.53 59.954 0.127 7.53 4.08 9.02
5/20/2022 10:15:00 AM 15.66 60.188 0.127 7.54 4.18 9.1
5/20/2022 10:30:00 AM 15.69 60.242 0.127 7.54 4.11 9.06
5/20/2022 10:45:00 AM 15.76 60.368 0.127 7.54 4.08 9.03
5/20/2022 11:00:00 AM 15.8 60.44 0.127 7.54 4.01 9.02
5/20/2022 11:15:00 AM 15.86 60.548 0.127 7.55 4.36 9.03
5/20/2022 11:30:00 AM 15.91 60.638 0.127 7.55 4.25 9.03
5/20/2022 11:45:00 AM 15.94 60.692 0.127 7.55 4.38 8.99
5/20/2022 12:00:00 PM 15.99 60.782 0.127 7.56 4.32 8.96
5/20/2022 12:15:00 PM 16.14 61.052 0.127 7.56 4.08 9.01
5/20/2022 12:30:00 PM 16.27 61.286 0.127 7.56 4 9
5/20/2022 12:45:00 PM 16.71 62.078 0.127 7.55 3.76 9.03
5/20/2022 1:00:00 PM 17.01 62.618 0.127 7.59 3.89 9.04
5/20/2022 1:15:00 PM 17.49 63.482 0.127 7.61 4.36 9.01
5/20/2022 1:30:00 PM 17.98 64.364 0.127 7.61 4.45 8.96
5/20/2022 1:45:00 PM 18.1 64.58 0.127 7.62 3.88 8.91
5/20/2022 2:00:00 PM 18.2 64.76 0.127 7.61 4.06 8.85
5/20/2022 2:15:00 PM 18.18 64.724 0.127 7.62 4.08 8.77
5/20/2022 2:30:00 PM 18.23 64.814 0.127 7.62 3.77 8.76
5/20/2022 2:45:00 PM 18.34 65.012 0.127 7.62 4.08 8.72
5/20/2022 3:00:00 PM 18.38 65.084 0.127 7.63 3.76 8.76
5/20/2022 3:15:00 PM 18.34 65.012 0.127 7.62 4.12 8.73
5/20/2022 3:30:00 PM 18.34 65.012 0.127 7.63 3.98 8.73
5/20/2022 3:45:00 PM 18.32 64.976 0.128 7.63 3.88 8.7
5/20/2022 4:00:00 PM 18.29 64.922 0.128 7.62 3.93 8.68
5/20/2022 4:15:00 PM 18.3 64.94 0.128 7.62 4.08 8.6
5/20/2022 4:30:00 PM 18.28 64.904 0.128 7.61 4.3 8.6
5/20/2022 4:45:00 PM 18.25 64.85 0.128 7.62 4.3 8.59
5/20/2022 5:00:00 PM 18.19 64.742 0.128 7.6 4.32 8.54
5/20/2022 5:15:00 PM 18.14 64.652 0.128 7.59 4.18 8.45
5/20/2022 5:30:00 PM 18.06 64.508 0.128 7.58 4.35 8.44
5/20/2022 5:45:00 PM 18.06 64.508 0.128 7.57 4.2 8.43
5/20/2022 6:00:00 PM 18.03 64.454 0.128 7.58 4.29 8.46
5/20/2022 6:15:00 PM 18.02 64.436 0.128 7.57 4.41 8.45
5/20/2022 6:30:00 PM 17.99 64.382 0.129 7.55 4.11 8.37
5/20/2022 6:45:00 PM 17.96 64.328 0.129 7.56 4.38 8.45
5/20/2022 7:00:00 PM 17.91 64.238 0.129 7.54 4.43 8.34
5/20/2022 7:15:00 PM 17.83 64.094 0.129 7.53 4.69 8.39
5/20/2022 7:30:00 PM 17.78 64.004 0.129 7.52 4.19 8.37
5/20/2022 7:45:00 PM 17.71 63.878 0.129 7.52 4.17 8.35
5/20/2022 8:00:00 PM 17.62 63.716 0.129 7.51 4.14 8.33
5/20/2022 8:15:00 PM 17.54 63.572 0.129 7.51 4.15 8.33
5/20/2022 8:30:00 PM 17.46 63.428 0.129 7.5 4.48 8.28
5/20/2022 8:45:00 PM 17.37 63.266 0.129 7.49 4.03 8.3
5/20/2022 9:00:00 PM 17.29 63.122 0.129 7.48 4.26 8.26
5/20/2022 9:15:00 PM 17.2 62.96 0.129 7.47 4.32 8.31
5/20/2022 9:30:00 PM 17.13 62.834 0.129 7.44 4.21 8.28
5/20/2022 9:45:00 PM 17.05 62.69 0.129 7.45 4.32 8.32
5/20/2022 10:00:00 PM 16.97 62.546 0.129 7.45 4.55 8.29
5/20/2022 10:15:00 PM 16.9 62.42 0.129 7.44 4.82 8.35
5/20/2022 10:30:00 PM 16.85 62.33 0.129 7.44 4.21 8.35
5/20/2022 10:45:00 PM 16.78 62.204 0.129 7.44 4.37 8.34
5/20/2022 11:00:00 PM 16.73 62.114 0.129 7.44 4.45 8.37
5/20/2022 11:15:00 PM 16.66 61.988 0.129 7.44 4.46 8.39
5/20/2022 11:30:00 PM 16.65 61.97 0.129 7.43 4.1 8.32
5/20/2022 11:45:00 PM 16.61 61.898 0.13 7.43 4.3 8.32
5/21/2022 12:00:00 AM 16.55 61.79 0.129 7.43 4.21 8.37
5/21/2022 12:15:00 AM 16.54 61.772 0.129 7.42 4.24 8.4
5/21/2022 12:30:00 AM 16.5 61.7 0.129 7.43 4.74 8.38
5/21/2022 12:45:00 AM 16.47 61.646 0.129 7.42 4.4 8.37
5/21/2022 1:00:00 AM 16.45 61.61 0.129 7.42 4.08 8.35
5/21/2022 1:15:00 AM 16.42 61.556 0.129 7.41 4.24 8.33
5/21/2022 1:30:00 AM 16.38 61.484 0.129 7.42 4.05 8.43
5/21/2022 1:45:00 AM 16.37 61.466 0.129 7.41 4.16 8.38
5/21/2022 2:00:00 AM 16.33 61.394 0.129 7.41 4.59 8.39
5/21/2022 2:15:00 AM 16.29 61.322 0.129 7.42 4.15 8.45
5/21/2022 2:30:00 AM 16.29 61.322 0.129 7.41 4.34 8.4
5/21/2022 2:45:00 AM 16.26 61.268 0.129 7.38 4.21 8.41
5/21/2022 3:00:00 AM 16.23 61.214 0.129 7.41 4.33 8.47
5/21/2022 3:15:00 AM 16.22 61.196 0.129 7.4 4.08 8.43
5/21/2022 3:30:00 AM 16.19 61.142 0.129 7.4 4.46 8.48
5/21/2022 3:45:00 AM 16.18 61.124 0.129 7.39 4.51 8.44
5/21/2022 4:00:00 AM 16.17 61.106 0.129 7.4 4.31 8.45
5/21/2022 4:15:00 AM 16.17 61.106 0.129 7.41 4.64 8.47
5/21/2022 4:30:00 AM 16.16 61.088 0.129 7.41 4.36 8.44
5/21/2022 4:45:00 AM 16.14 61.052 0.129 7.39 4.73 8.49
5/21/2022 5:00:00 AM 16.13 61.034 0.129 7.4 4.45 8.48
5/21/2022 5:15:00 AM 16.12 61.016 0.129 7.4 4.19 8.41
5/21/2022 5:30:00 AM 16.1 60.98 0.129 7.41 4.44 8.5
5/21/2022 5:45:00 AM 16.08 60.944 0.129 7.39 4.42 8.44
5/21/2022 6:00:00 AM 16.06 60.908 0.129 7.41 4.31 8.48
5/21/2022 6:15:00 AM 16.05 60.89 0.129 7.39 4.4 8.46
5/21/2022 6:30:00 AM 16.03 60.854 0.129 7.4 4.39 8.53
5/21/2022 6:45:00 AM 16.02 60.836 0.129 7.4 4.39 8.57
5/21/2022 7:00:00 AM 16.01 60.818 0.129 7.41 4.61 8.59
5/21/2022 7:15:00 AM 16.02 60.836 0.129 7.4 4.24 8.57
5/21/2022 7:30:00 AM 16.02 60.836 0.129 7.41 4.45 8.59
5/21/2022 7:45:00 AM 16.04 60.872 0.129 7.42 4.55 8.63
5/21/2022 8:00:00 AM 16.06 60.908 0.129 7.43 4.67 8.69
5/21/2022 8:15:00 AM 16.09 60.962 0.129 7.43 4.35 8.69
5/21/2022 8:30:00 AM 16.16 61.088 0.129 7.44 4.78 8.76
5/21/2022 8:45:00 AM 16.25 61.25 0.129 7.44 4.55 8.77
5/21/2022 9:00:00 AM 16.38 61.484 0.129 7.45 4.48 8.79
5/21/2022 9:15:00 AM 16.5 61.7 0.129 7.47 4.09 8.79
5/21/2022 9:30:00 AM 16.64 61.952 0.129 7.47 4.22 8.76
5/21/2022 9:45:00 AM 16.83 62.294 0.129 7.48 4.26 8.78
5/21/2022 10:00:00 AM 17.09 62.762 0.129 7.51 5 8.81
5/21/2022 10:15:00 AM 17.28 63.104 0.129 7.52 4 8.8
5/21/2022 10:30:00 AM 17.53 63.554 0.129 7.53 4.54 8.79
5/21/2022 10:45:00 AM 17.76 63.968 0.129 7.54 4.12 8.78
5/21/2022 11:00:00 AM 18.06 64.508 0.129 7.55 4.47 8.79
5/21/2022 11:15:00 AM 18.34 65.012 0.129 7.54 4.41 8.74
5/21/2022 11:30:00 AM 18.63 65.534 0.129 7.56 4.26 8.73
5/21/2022 11:45:00 AM 18.94 66.092 0.129 7.58 4.17 8.68
5/21/2022 12:00:00 PM 19.24 66.632 0.129 7.59 4.52 8.7
5/21/2022 12:15:00 PM 19.55 67.19 0.129 7.58 4.57 8.63
5/21/2022 12:30:00 PM 19.86 67.748 0.129 7.58 4.24 8.54
5/21/2022 12:45:00 PM 20.17 68.306 0.129 7.6 4.13 8.52
5/21/2022 1:00:00 PM 20.5 68.9 0.129 7.6 4.27 8.5
5/21/2022 1:15:00 PM 20.81 69.458 0.129 7.6 4.25 8.44
5/21/2022 1:30:00 PM 21.03 69.854 0.129 7.61 4.08 8.39
5/21/2022 1:45:00 PM 21.29 70.32201 0.129 7.62 4.24 8.34
5/21/2022 2:00:00 PM 21.48 70.664 0.13 7.62 4.08 8.3
5/21/2022 2:15:00 PM 21.69 71.042 0.13 7.62 3.91 8.24
5/21/2022 2:30:00 PM 21.88 71.384 0.13 7.62 3.73 8.21
5/21/2022 2:45:00 PM 21.95 71.51 0.13 7.62 4.01 8.17
5/21/2022 3:00:00 PM 21.95 71.51 0.13 7.62 3.99 8.15
5/21/2022 3:15:00 PM 22.07 71.726 0.13 7.62 5.26 8.08
5/21/2022 3:30:00 PM 22.12 71.816 0.13 7.62 4.53 8.13
5/21/2022 3:45:00 PM 22.16 71.888 0.13 7.62 4.15 8.09
5/21/2022 4:00:00 PM 22.1 71.78 0.13 7.61 4.59 8.03
5/21/2022 4:15:00 PM 22.12 71.816 0.13 7.6 4.26 8.02
5/21/2022 4:30:00 PM 22.07 71.726 0.131 7.6 5.22 7.97
5/21/2022 4:45:00 PM 22.08 71.744 0.131 7.6 4.18 7.97
5/21/2022 5:00:00 PM 22 71.6 0.131 7.59 4.27 7.92
5/21/2022 5:15:00 PM 21.94 71.492 0.131 7.59 4.47 7.91
5/21/2022 5:30:00 PM 21.87 71.366 0.131 7.58 4.36 7.83
5/21/2022 5:45:00 PM 21.8 71.24 0.131 7.58 4.37 7.87
5/21/2022 6:00:00 PM 21.71 71.078 0.131 7.56 4.2 7.8
5/21/2022 6:15:00 PM 21.63 70.934 0.132 7.56 3.92 7.8
5/21/2022 6:30:00 PM 21.56 70.808 0.132 7.55 4.06 7.74
5/21/2022 6:45:00 PM 21.44 70.592 0.132 7.54 4.37 7.78
5/21/2022 7:00:00 PM 21.37 70.466 0.132 7.53 4.26 7.73
5/21/2022 7:15:00 PM 21.29 70.32201 0.132 7.52 3.9 7.7
5/21/2022 7:30:00 PM 21.2 70.16 0.132 7.52 3.97 7.69
5/21/2022 7:45:00 PM 21.11 69.998 0.132 7.51 4 7.69
5/21/2022 8:00:00 PM 21.03 69.854 0.132 7.49 4.37 7.67
5/21/2022 8:15:00 PM 20.96 69.728 0.132 7.48 3.95 7.64
5/21/2022 8:30:00 PM 20.9 69.62 0.132 7.47 3.9 7.58
5/21/2022 8:45:00 PM 20.77 69.386 0.132 7.46 4.12 7.58
5/21/2022 9:00:00 PM 20.71 69.278 0.133 7.44 4.02 7.56
5/21/2022 9:15:00 PM 20.62 69.116 0.133 7.43 3.87 7.55
5/21/2022 9:30:00 PM 20.53 68.954 0.133 7.43 4.39 7.55
5/21/2022 9:45:00 PM 20.45 68.81 0.133 7.42 3.97 7.59
5/21/2022 10:00:00 PM 20.39 68.702 0.133 7.42 3.86 7.58
5/21/2022 10:15:00 PM 20.3 68.54 0.133 7.42 4.42 7.63
5/21/2022 10:30:00 PM 20.26 68.468 0.133 7.41 4.06 7.54
5/21/2022 10:45:00 PM 20.19 68.342 0.133 7.41 4.75 7.61
5/21/2022 11:00:00 PM 20.14 68.252 0.133 7.4 4.11 7.62
5/21/2022 11:15:00 PM 20.09 68.162 0.133 7.4 3.78 7.59
5/21/2022 11:30:00 PM 20.02 68.036 0.133 7.39 4.05 7.58
5/21/2022 11:45:00 PM 19.97 67.946 0.133 7.39 3.95 7.59
5/22/2022 12:00:00 AM 19.9 67.82 0.133 7.39 3.87 7.63
5/22/2022 12:15:00 AM 19.87 67.766 0.133 7.39 3.81 7.58
5/22/2022 12:30:00 AM 19.82 67.676 0.133 7.39 4.57 7.63
5/22/2022 12:45:00 AM 19.79 67.622 0.133 7.38 4.08 7.58
5/22/2022 1:00:00 AM 19.76 67.568 0.133 7.38 4.13 7.58
5/22/2022 1:15:00 AM 19.72 67.496 0.133 7.38 4.24 7.59
5/22/2022 1:30:00 AM 19.7 67.46 0.133 7.37 3.84 7.58
5/22/2022 1:45:00 AM 19.67 67.406 0.133 7.38 3.89 7.64
5/22/2022 2:00:00 AM 19.64 67.352 0.133 7.38 4.09 7.62
5/22/2022 2:15:00 AM 19.62 67.316 0.133 7.37 5.83 7.54
5/22/2022 2:30:00 AM 19.59 67.262 0.133 7.36 4.15 7.65
5/22/2022 2:45:00 AM 19.57 67.226 0.133 7.37 4.24 7.59
5/22/2022 3:00:00 AM 19.54 67.172 0.133 7.38 4.3 7.72
5/22/2022 3:15:00 AM 19.54 67.172 0.133 7.38 4.43 7.69
5/22/2022 3:30:00 AM 19.52 67.136 0.133 7.38 4.15 7.64
5/22/2022 3:45:00 AM 19.49 67.082 0.133 7.38 4 7.67
5/22/2022 4:00:00 AM 19.46 67.028 0.133 7.37 4.26 7.67
5/22/2022 4:15:00 AM 19.42 66.956 0.133 7.39 4.41 7.77
5/22/2022 4:30:00 AM 19.39 66.902 0.133 7.39 4.24 7.78
5/22/2022 4:45:00 AM 19.36 66.848 0.133 7.37 4.13 7.78
5/22/2022 5:00:00 AM 19.33 66.794 0.133 7.39 4.19 7.75
5/22/2022 5:15:00 AM 19.3 66.74 0.133 7.39 4.58 7.73
5/22/2022 5:30:00 AM 19.28 66.704 0.133 7.38 4.34 7.66
5/22/2022 5:45:00 AM 19.25 66.65 0.133 7.39 4.39 7.71
5/22/2022 6:00:00 AM 19.21 66.578 0.133 7.38 4.58 7.68
5/22/2022 6:15:00 AM 19.18 66.524 0.133 7.39 4.11 7.8
5/22/2022 6:30:00 AM 19.16 66.488 0.133 7.39 4.16 7.65
5/22/2022 6:45:00 AM 19.14 66.452 0.133 7.39 5.17 7.78
5/22/2022 7:00:00 AM 19.13 66.434 0.133 7.39 4.29 7.68
5/22/2022 7:15:00 AM 19.11 66.398 0.133 7.4 4.54 7.9
5/22/2022 7:30:00 AM 19.12 66.416 0.133 7.4 4.39 7.81
5/22/2022 7:45:00 AM 19.15 66.47 0.133 7.41 4.27 7.91
5/22/2022 8:00:00 AM 19.18 66.524 0.133 7.41 4.7 7.95
5/22/2022 8:15:00 AM 19.21 66.578 0.133 7.42 4.03 7.88
5/22/2022 8:30:00 AM 19.28 66.704 0.133 7.43 3.88 7.93
5/22/2022 8:45:00 AM 19.38 66.884 0.133 7.44 3.92 7.97
5/22/2022 9:00:00 AM 19.49 67.082 0.133 7.46 4.23 7.95
5/22/2022 9:15:00 AM 19.63 67.334 0.133 7.47 4.04 8
5/22/2022 9:30:00 AM 19.74 67.532 0.133 7.45 4.22 8.03
5/22/2022 9:45:00 AM 19.83 67.694 0.133 7.48 4.32 8.03
5/22/2022 10:00:00 AM 19.96 67.92799 0.133 7.48 4.75 8.06
5/22/2022 10:15:00 AM 20.05 68.09 0.133 7.51 4.04 8.08
5/22/2022 10:30:00 AM 20.18 68.324 0.133 7.51 4.29 8.08
5/22/2022 10:45:00 AM 20.28 68.504 0.133 7.52 4.37 8.09
5/22/2022 11:00:00 AM 20.38 68.684 0.133 7.51 4.3 8.12
5/22/2022 11:15:00 AM 20.51 68.918 0.133 7.53 4.31 8.12
5/22/2022 11:30:00 AM 20.72 69.296 0.133 7.53 4.04 8.09
5/22/2022 11:45:00 AM 21.04 69.872 0.133 7.54 3.7 8.08
5/22/2022 12:00:00 PM 21.35 70.43 0.133 7.55 4.2 8.11
5/22/2022 12:15:00 PM 21.61 70.898 0.133 7.54 3.86 8.02
5/22/2022 12:30:00 PM 21.96 71.528 0.133 7.55 3.95 7.99
5/22/2022 12:45:00 PM 22.33 72.194 0.133 7.57 4.13 8.04
5/22/2022 1:00:00 PM 22.62 72.716 0.133 7.56 4.27 7.92
5/22/2022 1:15:00 PM 22.73 72.914 0.133 7.56 3.99 7.81
5/22/2022 1:30:00 PM 23.02 73.436 0.133 7.58 3.88 7.84
5/22/2022 1:45:00 PM 23.32 73.976 0.134 7.58 3.77 7.79
5/22/2022 2:00:00 PM 23.48 74.264 0.133 7.58 3.94 7.81
5/22/2022 2:15:00 PM 23.67 74.606 0.134 7.58 3.61 7.77
5/22/2022 2:30:00 PM 23.77 74.786 0.134 7.57 4.18 7.65
5/22/2022 2:45:00 PM 23.93 75.074 0.134 7.58 3.71 7.68
5/22/2022 3:00:00 PM 23.83 74.894 0.134 7.59 3.9 7.64
5/22/2022 3:15:00 PM 23.74 74.732 0.134 7.57 4.14 7.59
5/22/2022 3:30:00 PM 23.65 74.57 0.134 7.57 4.47 7.57
5/22/2022 3:45:00 PM 23.41 74.138 0.134 7.55 4.24 7.47
5/22/2022 4:00:00 PM 23.35 74.03 0.134 7.54 4.14 7.43
5/22/2022 4:15:00 PM 23.13 73.634 0.134 7.54 4.3 7.45
5/22/2022 4:30:00 PM 23.06 73.508 0.134 7.53 4.23 7.41
5/22/2022 4:45:00 PM 23.08 73.544 0.134 7.53 4.1 7.49
5/22/2022 5:00:00 PM 23.08 73.544 0.134 7.51 3.92 7.37
5/22/2022 5:15:00 PM 23.08 73.544 0.134 7.53 4.21 7.45
5/22/2022 5:30:00 PM 23.08 73.544 0.134 7.52 4.98 7.4
5/22/2022 5:45:00 PM 23.09 73.562 0.134 7.52 4.51 7.42
5/22/2022 6:00:00 PM 23.02 73.436 0.135 7.52 3.98 7.41
5/22/2022 6:15:00 PM 22.95 73.31 0.135 7.51 4.19 7.33
5/22/2022 6:30:00 PM 22.88 73.184 0.135 7.5 4.58 7.33
5/22/2022 6:45:00 PM 22.83 73.094 0.135 7.49 4.28 7.28
5/22/2022 7:00:00 PM 22.67 72.806 0.135 7.49 4.65 7.3
5/22/2022 7:15:00 PM 22.63 72.734 0.135 7.47 3.95 7.25
5/22/2022 7:30:00 PM 22.52 72.536 0.135 7.47 4.58 7.21
5/22/2022 7:45:00 PM 22.35 72.23 0.136 7.45 4.45 7.21
5/22/2022 8:00:00 PM 22.22 71.996 0.136 7.46 4.85 7.22
5/22/2022 8:15:00 PM 22.1 71.78 0.136 7.45 4.67 7.25
5/22/2022 8:30:00 PM 21.99 71.582 0.136 7.45 4.69 7.27
5/22/2022 8:45:00 PM 21.89 71.402 0.136 7.43 4.27 7.25
5/22/2022 9:00:00 PM 21.71 71.078 0.136 7.45 5.23 7.39
5/22/2022 9:15:00 PM 21.59 70.862 0.136 7.46 4.63 7.44
5/22/2022 9:30:00 PM 21.5 70.7 0.136 7.46 4.87 7.43
5/22/2022 9:45:00 PM 21.43 70.574 0.136 7.43 4.32 7.36
5/22/2022 10:00:00 PM 21.32 70.376 0.136 7.45 4.24 7.34
5/22/2022 10:15:00 PM 21.17 70.106 0.136 7.45 4.46 7.41
5/22/2022 10:30:00 PM 21.09 69.962 0.136 7.45 4.77 7.41
5/22/2022 10:45:00 PM 20.9 69.62 0.136 7.44 5.06 7.42
5/22/2022 11:00:00 PM 20.73 69.314 0.136 7.45 4.54 7.5
5/22/2022 11:15:00 PM 20.57 69.026 0.136 7.44 4.78 7.6
5/22/2022 11:30:00 PM 20.43 68.774 0.136 7.48 5.52 7.69
5/22/2022 11:45:00 PM 20.35 68.63 0.136 7.5 6.78 7.78
5/23/2022 12:00:00 AM 20.33 68.594 0.136 7.51 7.31 7.79
5/23/2022 12:15:00 AM 20.27 68.486 0.135 7.54 10.39 7.93
5/23/2022 12:30:00 AM 20.27 68.486 0.135 7.56 13.36 8.09
5/23/2022 12:45:00 AM 20.25 68.45 0.135 7.56 10.09 8.09
5/23/2022 1:00:00 AM 20.25 68.45 0.134 7.54 12.58 8.06
5/23/2022 1:15:00 AM 20.28 68.504 0.134 7.56 10.96 8.11
5/23/2022 1:30:00 AM 20.29 68.522 0.134 7.56 9.07 8.09
5/23/2022 1:45:00 AM 20.31 68.558 0.133 7.56 9.8 8.08
5/23/2022 2:00:00 AM 20.31 68.558 0.133 7.56 7.37 8.06
5/23/2022 2:15:00 AM 20.31 68.558 0.133 7.56 7.08 8.05
5/23/2022 2:30:00 AM 20.3 68.54 0.133 7.55 7.88 8.02
5/23/2022 2:45:00 AM 20.29 68.522 0.133 7.56 8.62 8.07
5/23/2022 3:00:00 AM 20.22 68.396 0.133 7.54 7.09 8.01
5/23/2022 3:15:00 AM 20.15 68.27 0.133 7.55 6.77 8.08
5/23/2022 3:30:00 AM 20.07 68.126 0.133 7.55 6.61 8.08
5/23/2022 3:45:00 AM 19.99 67.982 0.133 7.54 6.29 8.05
5/23/2022 4:00:00 AM 19.91 67.838 0.133 7.54 7.21 8.08
5/23/2022 4:15:00 AM 19.81 67.658 0.133 7.55 6.58 8.12
5/23/2022 4:30:00 AM 19.74 67.532 0.133 7.52 6.72 8.06
5/23/2022 4:45:00 AM 19.66 67.388 0.133 7.53 6.08 8.08
5/23/2022 5:00:00 AM 19.58 67.244 0.132 7.54 6.91 8.11
5/23/2022 5:15:00 AM 19.51 67.118 0.132 7.54 6.96 8.14
5/23/2022 5:30:00 AM 19.41 66.938 0.132 7.54 7.18 8.21
5/23/2022 5:45:00 AM 19.34 66.812 0.132 7.54 6.83 8.18
5/23/2022 6:00:00 AM 19.3 66.74 0.132 7.54 6.04 8.18
5/23/2022 6:15:00 AM 19.24 66.632 0.132 7.54 6.79 8.21
5/23/2022 6:30:00 AM 19.2 66.56 0.132 7.54 6.54 8.19
5/23/2022 6:45:00 AM 19.15 66.47 0.133 7.55 6.58 8.23
5/23/2022 7:00:00 AM 19.09 66.362 0.133 7.56 7.34 8.32
5/23/2022 7:15:00 AM 19.04 66.272 0.133 7.55 8.82 8.32
5/23/2022 7:30:00 AM 19.01 66.218 0.134 7.56 7.18 8.35
5/23/2022 7:45:00 AM 18.97 66.146 0.134 7.56 6.14 8.35
5/23/2022 8:00:00 AM 18.94 66.092 0.134 7.56 6.33 8.31
5/23/2022 8:15:00 AM 18.9 66.02 0.134 7.56 6.68 8.31
5/23/2022 8:30:00 AM 18.87 65.966 0.135 7.55 6.39 8.36
5/23/2022 8:45:00 AM 18.88 65.984 0.135 7.57 5.96 8.35
5/23/2022 9:00:00 AM 18.9 66.02 0.136 7.58 6.01 8.4
5/23/2022 9:15:00 AM 18.9 66.02 0.137 7.59 6.46 8.45
5/23/2022 9:30:00 AM 18.96 66.128 0.137 7.59 7.01 8.45
5/23/2022 9:45:00 AM 18.97 66.146 0.137 7.61 5.95 8.44
5/23/2022 10:00:00 AM 18.99 66.182 0.138 7.61 6.88 8.53
5/23/2022 10:15:00 AM 19.04 66.272 0.138 7.62 6.58 8.56
5/23/2022 10:30:00 AM 19.12 66.416 0.138 7.62 6.97 8.53
5/23/2022 10:45:00 AM 19.19 66.542 0.139 7.63 7.08 8.53
5/23/2022 11:00:00 AM 19.24 66.632 0.139 7.63 7.14 8.56
5/23/2022 11:15:00 AM 19.33 66.794 0.139 7.64 5.68 8.55
5/23/2022 11:30:00 AM 19.41 66.938 0.139 7.65 6.85 8.57
5/23/2022 11:45:00 AM 19.57 67.226 0.139 7.66 6.35 8.58
5/23/2022 12:00:00 PM 19.71 67.478 0.138 7.66 6.67 8.56
5/23/2022 12:15:00 PM 19.82 67.676 0.138 7.66 5.73 8.51
5/23/2022 12:30:00 PM 19.85 67.73 0.138 7.67 6.19 8.55
5/23/2022 12:45:00 PM 19.9 67.82 0.138 7.66 6.29 8.52
5/23/2022 1:00:00 PM 19.93 67.874 0.137 7.67 6.11 8.51
5/23/2022 1:15:00 PM 19.92 67.856 0.137 7.67 6.99 8.54
5/23/2022 1:30:00 PM 19.92 67.856 0.137 7.66 5.84 8.47
5/23/2022 1:45:00 PM 19.9 67.82 0.136 7.68 8.48 8.55
5/23/2022 2:00:00 PM 19.94 67.892 0.136 7.68 6.56 8.51
5/23/2022 2:15:00 PM 19.95 67.91 0.136 7.67 5.69 8.5
5/23/2022 2:30:00 PM 19.97 67.946 0.135 7.67 6.6 8.49
5/23/2022 2:45:00 PM 20.02 68.036 0.135 7.68 5.77 8.49
5/23/2022 3:00:00 PM 20.03 68.054 0.135 7.67 6.09 8.43
5/23/2022 3:15:00 PM 20.04 68.07201 0.135 7.66 5.83 8.46
5/23/2022 3:30:00 PM 20.04 68.07201 0.134 7.66 6.45 8.42
5/23/2022 3:45:00 PM 20.02 68.036 0.134 7.66 6.14 8.42
5/23/2022 4:00:00 PM 19.99 67.982 0.134 7.66 6.21 8.37
5/23/2022 4:15:00 PM 19.91 67.838 0.134 7.66 6.53 8.41
5/23/2022 4:30:00 PM 19.83 67.694 0.134 7.65 6.72 8.37
5/23/2022 4:45:00 PM 19.76 67.568 0.134 7.65 7.09 8.39
5/23/2022 5:00:00 PM 19.7 67.46 0.133 7.64 7.44 8.38
5/23/2022 5:15:00 PM 19.64 67.352 0.133 7.63 8.29 8.35
5/23/2022 5:30:00 PM 19.57 67.226 0.133 7.63 8.58 8.36
5/23/2022 5:45:00 PM 19.53 67.154 0.133 7.62 8.66 8.37
5/23/2022 6:00:00 PM 19.5 67.1 0.133 7.61 8.95 8.31
5/23/2022 6:15:00 PM 19.45 67.01 0.132 7.6 9.08 8.3
5/23/2022 6:30:00 PM 19.4 66.92 0.132 7.59 10.59 8.26
5/23/2022 6:45:00 PM 19.32 66.776 0.132 7.59 10.95 8.29
5/23/2022 7:00:00 PM 19.27 66.686 0.131 7.57 10.76 8.25
5/23/2022 7:15:00 PM 19.2 66.56 0.131 7.56 12.17 8.2
5/23/2022 7:30:00 PM 19.12 66.416 0.131 7.56 12.78 8.21
5/23/2022 7:45:00 PM 19.02 66.236 0.131 7.54 12.75 8.21
5/23/2022 8:00:00 PM 18.95 66.11 0.13 7.51 12.67 8.18
5/23/2022 8:15:00 PM 18.9 66.02 0.13 7.52 13.73 8.13
5/23/2022 8:30:00 PM 18.78 65.804 0.13 7.51 14.39 8.14
5/23/2022 8:45:00 PM 18.73 65.714 0.13 7.5 14.65 8.13
5/23/2022 9:00:00 PM 18.68 65.624 0.129 7.49 14.89 8.09
5/23/2022 9:15:00 PM 18.62 65.516 0.129 7.48 14.59 8.09
5/23/2022 9:30:00 PM 18.54 65.372 0.129 7.45 15.88 8.09
5/23/2022 9:45:00 PM 18.51 65.318 0.129 7.47 15.21 8.07
5/23/2022 10:00:00 PM 18.44 65.192 0.128 7.46 15.01 8.06
5/23/2022 10:15:00 PM 18.39 65.102 0.128 7.46 15.32 8.11
5/23/2022 10:30:00 PM 18.34 65.012 0.128 7.46 15.45 8.09
5/23/2022 10:45:00 PM 18.29 64.922 0.128 7.45 14.42 8.11
5/23/2022 11:00:00 PM 18.24 64.832 0.128 7.44 14.57 8.09
5/23/2022 11:15:00 PM 18.19 64.742 0.127 7.45 14.52 8.12
5/23/2022 11:30:00 PM 18.16 64.688 0.127 7.44 14.08 8.07
5/23/2022 11:45:00 PM 18.11 64.598 0.127 7.44 13.96 8.08
5/24/2022 12:00:00 AM 18.06 64.508 0.127 7.43 13.36 8.1
5/24/2022 12:15:00 AM 18.01 64.418 0.127 7.43 13.86 8.11
5/24/2022 12:30:00 AM 17.94 64.292 0.127 7.44 13.14 8.16
5/24/2022 12:45:00 AM 17.91 64.238 0.127 7.43 13.89 8.11
5/24/2022 1:00:00 AM 17.82 64.076 0.126 7.43 13.49 8.17
5/24/2022 1:15:00 AM 17.8 64.04 0.126 7.42 13.26 8.11
5/24/2022 1:30:00 AM 17.73 63.914 0.126 7.42 13.21 8.16
5/24/2022 1:45:00 AM 17.7 63.86 0.126 7.42 12.66 8.12
5/24/2022 2:00:00 AM 17.64 63.752 0.126 7.4 12.14 8.16
5/24/2022 2:15:00 AM 17.6 63.68 0.126 7.41 11.81 8.16
5/24/2022 2:30:00 AM 17.53 63.554 0.126 7.41 12.77 8.18
5/24/2022 2:45:00 AM 17.48 63.464 0.126 7.41 11.27 8.16
5/24/2022 3:00:00 AM 17.41 63.338 0.126 7.41 12.51 8.19
5/24/2022 3:15:00 AM 17.37 63.266 0.126 7.39 11.53 8.19
5/24/2022 3:30:00 AM 17.32 63.176 0.126 7.4 11.35 8.18
5/24/2022 3:45:00 AM 17.24 63.032 0.126 7.41 11.41 8.23
5/24/2022 4:00:00 AM 17.2 62.96 0.126 7.41 11.3 8.2
5/24/2022 4:15:00 AM 17.13 62.834 0.126 7.4 11.12 8.23
5/24/2022 4:30:00 AM 17.07 62.726 0.126 7.37 10.27 8.23
5/24/2022 4:45:00 AM 17.01 62.618 0.126 7.39 9.79 8.23
5/24/2022 5:00:00 AM 16.92 62.456 0.126 7.39 10.66 8.3
5/24/2022 5:15:00 AM 16.87 62.366 0.126 7.39 10.16 8.3
5/24/2022 5:30:00 AM 16.8 62.24 0.126 7.37 9.72 8.29
5/24/2022 5:45:00 AM 16.72 62.096 0.126 7.39 9.2 8.33
5/24/2022 6:00:00 AM 16.68 62.024 0.126 7.38 9.22 8.3
5/24/2022 6:15:00 AM 16.61 61.898 0.126 7.38 8.93 8.32
5/24/2022 6:30:00 AM 16.56 61.808 0.126 7.39 8.46 8.36
5/24/2022 6:45:00 AM 16.53 61.754 0.126 7.4 8.04 8.39
5/24/2022 7:00:00 AM 16.51 61.718 0.126 7.4 7.66 8.41
5/24/2022 7:15:00 AM 16.5 61.7 0.126 7.4 7.56 8.42
5/24/2022 7:30:00 AM 16.49 61.682 0.127 7.42 7.67 8.53
5/24/2022 7:45:00 AM 16.51 61.718 0.127 7.42 8.23 8.48
5/24/2022 8:00:00 AM 16.51 61.718 0.127 7.43 7.24 8.52
5/24/2022 8:15:00 AM 16.54 61.772 0.127 7.44 7.52 8.57
5/24/2022 8:30:00 AM 16.54 61.772 0.127 7.45 7.39 8.59
5/24/2022 8:45:00 AM 16.56 61.808 0.127 7.46 7.1 8.61
5/24/2022 9:00:00 AM 16.6 61.88 0.127 7.47 6.76 8.67
5/24/2022 9:15:00 AM 16.64 61.952 0.127 7.47 6.72 8.63
5/24/2022 9:30:00 AM 16.66 61.988 0.127 7.48 6.35 8.67
5/24/2022 9:45:00 AM 16.68 62.024 0.127 7.48 6.51 8.65
5/24/2022 10:00:00 AM 16.71 62.078 0.127 7.49 6.51 8.73
5/24/2022 10:15:00 AM 16.74 62.132 0.127 7.5 6.35 8.8
5/24/2022 10:30:00 AM 16.76 62.168 0.127 7.49 6.18 8.62
5/24/2022 10:45:00 AM 16.8 62.24 0.127 7.51 6.82 8.71
5/24/2022 11:00:00 AM 16.84 62.312 0.127 7.5 6.89 8.64
5/24/2022 11:15:00 AM 16.87 62.366 0.127 7.51 8.49 8.66
5/24/2022 11:30:00 AM 16.9 62.42 0.127 7.51 6.4 8.71
5/24/2022 11:45:00 AM 16.95 62.51 0.127 7.52 6.19 8.7
5/24/2022 12:00:00 PM 17 62.6 0.127 7.53 5.92 8.75
5/24/2022 12:15:00 PM 17.05 62.69 0.128 7.52 5.92 8.66
5/24/2022 12:30:00 PM 17.09 62.762 0.128 7.5 5.8 8.71
5/24/2022 12:45:00 PM 17.17 62.906 0.128 7.54 5.72 8.77
5/24/2022 1:00:00 PM 17.24 63.032 0.128 7.55 5.35 8.8
5/24/2022 1:15:00 PM 17.27 63.086 0.128 7.55 5.25 8.72
5/24/2022 1:30:00 PM 17.32 63.176 0.128 7.56 5.28 8.78
5/24/2022 1:45:00 PM 17.36 63.248 0.128 7.57 7.3 8.81
5/24/2022 2:00:00 PM 17.38 63.284 0.128 7.56 6.54 8.77
5/24/2022 2:15:00 PM 17.37 63.266 0.128 7.55 5.21 8.73
5/24/2022 2:30:00 PM 17.35 63.23 0.128 7.55 4.76 8.63
5/24/2022 2:45:00 PM 17.33 63.194 0.128 7.53 4.77 8.62
5/24/2022 3:00:00 PM 17.33 63.194 0.129 7.54 5.66 8.63
5/24/2022 3:15:00 PM 17.34 63.212 0.129 7.55 4.97 8.64
5/24/2022 3:30:00 PM 17.33 63.194 0.129 7.55 8.93 8.64
5/24/2022 3:45:00 PM 17.32 63.176 0.129 7.55 4.84 8.7
5/24/2022 4:00:00 PM 17.32 63.176 0.129 7.56 4.69 8.66
5/24/2022 4:15:00 PM 17.32 63.176 0.129 7.51 4.51 8.54
5/24/2022 4:30:00 PM 17.38 63.284 0.129 7.54 6.03 8.6
5/24/2022 4:45:00 PM 17.4 63.32 0.129 7.53 7.09 8.62
5/24/2022 5:00:00 PM 17.4 63.32 0.129 7.54 6.51 8.56
5/24/2022 5:15:00 PM 17.43 63.374 0.129 7.55 5.01 8.64
5/24/2022 5:30:00 PM 17.45 63.41 0.13 7.55 4.96 8.66
5/24/2022 5:45:00 PM 17.45 63.41 0.13 7.55 7.67 8.63
5/24/2022 6:00:00 PM 17.45 63.41 0.13 7.55 8.47 8.64
5/24/2022 6:15:00 PM 17.43 63.374 0.13 7.55 5.28 8.59
5/24/2022 6:30:00 PM 17.4 63.32 0.13 7.54 5.33 8.58
5/24/2022 6:45:00 PM 17.33 63.194 0.13 7.53 5.56 8.54
5/24/2022 7:00:00 PM 17.29 63.122 0.131 7.52 9.18 8.5
5/24/2022 7:15:00 PM 17.24 63.032 0.131 7.52 5.76 8.51
5/24/2022 7:30:00 PM 17.2 62.96 0.131 7.51 5.35 8.48
5/24/2022 7:45:00 PM 17.15 62.87 0.131 7.51 4.55 8.48
5/24/2022 8:00:00 PM 17.08 62.744 0.131 7.5 4.44 8.49
5/24/2022 8:15:00 PM 17.05 62.69 0.131 7.5 4.5 8.48
5/24/2022 8:30:00 PM 17.01 62.618 0.132 7.49 4.49 8.42
5/24/2022 8:45:00 PM 16.94 62.492 0.132 7.48 4.48 8.48
5/24/2022 9:00:00 PM 16.91 62.438 0.132 7.45 4.51 8.42
5/24/2022 9:15:00 PM 16.87 62.366 0.132 7.47 4.71 8.4
5/24/2022 9:30:00 PM 16.82 62.276 0.132 7.47 5.17 8.43
5/24/2022 9:45:00 PM 16.81 62.258 0.132 7.45 4.95 8.34
5/24/2022 10:00:00 PM 16.76 62.168 0.132 7.46 4.82 8.39
5/24/2022 10:15:00 PM 16.7 62.06 0.133 7.45 4.77 8.43
5/24/2022 10:30:00 PM 16.68 62.024 0.133 7.44 4.75 8.37
5/24/2022 10:45:00 PM 16.62 61.916 0.133 7.45 4.97 8.47
5/24/2022 11:00:00 PM 16.59 61.862 0.133 7.44 4.31 8.37
5/24/2022 11:15:00 PM 16.56 61.808 0.133 7.44 5.28 8.43
5/24/2022 11:30:00 PM 16.51 61.718 0.133 7.44 5.02 8.43
5/24/2022 11:45:00 PM 16.46 61.628 0.133 7.45 4.8 8.5
5/25/2022 12:00:00 AM 16.43 61.574 0.133 7.44 5.26 8.44
5/25/2022 12:15:00 AM 16.37 61.466 0.133 7.44 4.89 8.49
5/25/2022 12:30:00 AM 16.34 61.412 0.133 7.43 4.82 8.47
5/25/2022 12:45:00 AM 16.25 61.25 0.134 7.44 4.93 8.49
5/25/2022 1:00:00 AM 16.21 61.178 0.134 7.43 4.78 8.51
5/25/2022 1:15:00 AM 16.17 61.106 0.134 7.42 4.71 8.48
5/25/2022 1:30:00 AM 16.1 60.98 0.134 7.41 4.93 8.5
5/25/2022 1:45:00 AM 16.07 60.926 0.134 7.42 5.48 8.51
5/25/2022 2:00:00 AM 16.02 60.836 0.134 7.4 5.92 8.46
5/25/2022 2:15:00 AM 16 60.8 0.134 7.41 4.96 8.5
5/25/2022 2:30:00 AM 15.94 60.692 0.134 7.41 4.95 8.56
5/25/2022 2:45:00 AM 15.91 60.638 0.134 7.41 5.6 8.53
5/25/2022 3:00:00 AM 15.89 60.602 0.134 7.4 4.92 8.5
5/25/2022 3:15:00 AM 15.85 60.53 0.134 7.4 4.7 8.49
5/25/2022 3:30:00 AM 15.78 60.404 0.134 7.41 4.71 8.57
5/25/2022 3:45:00 AM 15.75 60.35 0.134 7.4 4.54 8.54
5/25/2022 4:00:00 AM 15.72 60.296 0.134 7.39 4.98 8.53
5/25/2022 4:15:00 AM 15.72 60.296 0.134 7.4 4.52 8.49
5/25/2022 4:30:00 AM 15.68 60.224 0.134 7.4 4.51 8.52
5/25/2022 4:45:00 AM 15.63 60.134 0.134 7.41 5.46 8.6
5/25/2022 5:00:00 AM 15.63 60.134 0.134 7.4 5.1 8.49
5/25/2022 5:15:00 AM 15.59 60.062 0.134 7.41 4.88 8.59
5/25/2022 5:30:00 AM 15.58 60.044 0.134 7.41 4.56 8.58
5/25/2022 5:45:00 AM 15.54 59.972 0.134 7.41 4.56 8.59
5/25/2022 6:00:00 AM 15.54 59.972 0.134 7.41 5.09 8.58
5/25/2022 6:15:00 AM 15.49 59.882 0.134 7.41 5.31 8.65
5/25/2022 6:30:00 AM 15.52 59.936 0.134 7.41 5 8.54
5/25/2022 6:45:00 AM 15.5 59.9 0.134 7.42 5.15 8.62
5/25/2022 7:00:00 AM 15.5 59.9 0.134 7.4 5.32 8.61
5/25/2022 7:15:00 AM 15.51 59.918 0.134 7.43 5.23 8.71
5/25/2022 7:30:00 AM 15.51 59.918 0.134 7.44 5.19 8.76
5/25/2022 7:45:00 AM 15.54 59.972 0.134 7.45 5.45 8.77
5/25/2022 8:00:00 AM 15.57 60.026 0.134 7.46 4.84 8.87
5/25/2022 8:15:00 AM 15.61 60.098 0.134 7.46 5.13 8.84
5/25/2022 8:30:00 AM 15.67 60.206 0.134 7.47 5.38 8.9
5/25/2022 8:45:00 AM 15.71 60.278 0.134 7.48 4.47 8.87
5/25/2022 9:00:00 AM 15.78 60.404 0.134 7.49 4.56 8.91
5/25/2022 9:15:00 AM 15.87 60.566 0.134 7.51 4.92 9
5/25/2022 9:30:00 AM 15.98 60.764 0.134 7.52 4.38 9.05
5/25/2022 9:45:00 AM 16.06 60.908 0.134 7.5 4.79 8.93
5/25/2022 10:00:00 AM 16.15 61.07 0.134 7.52 4.44 8.93
5/25/2022 10:15:00 AM 16.29 61.322 0.134 7.54 4.6 8.99
5/25/2022 10:30:00 AM 16.4 61.52 0.134 7.53 4.03 9
5/25/2022 10:45:00 AM 16.44 61.592 0.134 7.55 4.26 9
5/25/2022 11:00:00 AM 16.56 61.808 0.134 7.57 4.03 9.05
5/25/2022 11:15:00 AM 16.69 62.042 0.134 7.57 4.2 9
5/25/2022 11:30:00 AM 16.9 62.42 0.134 7.59 4.17 9.08
5/25/2022 11:45:00 AM 17.2 62.96 0.134 7.57 4.14 9.03
5/25/2022 12:00:00 PM 17.53 63.554 0.134 7.61 4.1 9.01
5/25/2022 12:15:00 PM 17.83 64.094 0.134 7.59 4.04 8.94
5/25/2022 12:30:00 PM 18.13 64.634 0.134 7.61 4.06 8.93
5/25/2022 12:45:00 PM 18.39 65.102 0.135 7.62 4.26 8.91
5/25/2022 1:00:00 PM 18.77 65.786 0.135 7.63 4.31 8.88
5/25/2022 1:15:00 PM 19.07 66.326 0.135 7.65 4.19 8.85
5/25/2022 1:30:00 PM 19.31 66.758 0.135 7.68 5.53 8.86
5/25/2022 1:45:00 PM 19.42 66.956 0.135 7.75 10.05 8.96
5/25/2022 2:00:00 PM 19.27 66.686 0.135 7.76 11.49 8.96
5/25/2022 2:15:00 PM 19.32 66.776 0.135 7.76 12.15 8.97
5/25/2022 2:30:00 PM 19.36 66.848 0.135 7.75 11.43 8.96
5/25/2022 2:45:00 PM 19.29 66.722 0.135 7.75 10.72 8.95
5/25/2022 3:00:00 PM 19.21 66.578 0.135 7.75 11.43 8.94
5/25/2022 3:15:00 PM 19.1 66.38 0.135 7.74 9.87 8.92
5/25/2022 3:30:00 PM 18.98 66.164 0.135 7.73 8.51 8.93
5/25/2022 3:45:00 PM 18.86 65.948 0.135 7.73 10.96 8.98
5/25/2022 4:00:00 PM 18.82 65.876 0.135 7.73 10.02 8.94
5/25/2022 4:15:00 PM 18.78 65.804 0.135 7.71 10.63 8.96
5/25/2022 4:30:00 PM 18.76 65.768 0.136 7.72 8.58 8.91
5/25/2022 4:45:00 PM 18.7 65.66 0.136 7.7 8.28 8.89
5/25/2022 5:00:00 PM 18.68 65.624 0.136 7.71 8.19 8.9
5/25/2022 5:15:00 PM 18.68 65.624 0.136 7.7 7.03 8.85
5/25/2022 5:30:00 PM 18.69 65.642 0.135 7.7 7.51 8.85
5/25/2022 5:45:00 PM 18.7 65.66 0.134 7.69 8.39 8.79
5/25/2022 6:00:00 PM 18.72 65.696 0.133 7.69 9.2 8.77
5/25/2022 6:15:00 PM 18.72 65.696 0.132 7.66 8.28 8.72
5/25/2022 6:30:00 PM 18.74 65.732 0.129 7.67 9.64 8.71
5/25/2022 6:45:00 PM 18.75 65.75 0.129 7.65 9.1 8.65
5/25/2022 7:00:00 PM 18.74 65.732 0.127 7.64 10.07 8.57
5/25/2022 7:15:00 PM 18.75 65.75 0.126 7.62 9.97 8.54
5/25/2022 7:30:00 PM 18.76 65.768 0.125 7.61 10.16 8.53
5/25/2022 7:45:00 PM 18.78 65.804 0.124 7.59 10.29 8.5
5/25/2022 8:00:00 PM 18.77 65.786 0.123 7.58 9.69 8.42
5/25/2022 8:15:00 PM 18.79 65.82201 0.122 7.55 9.36 8.39
5/25/2022 8:30:00 PM 18.78 65.804 0.122 7.55 9.13 8.36
5/25/2022 8:45:00 PM 18.81 65.858 0.121 7.53 10.11 8.34
5/25/2022 9:00:00 PM 18.79 65.82201 0.12 7.52 8.63 8.27
5/25/2022 9:15:00 PM 18.83 65.894 0.119 7.51 8.43 8.3
5/25/2022 9:30:00 PM 18.81 65.858 0.119 7.49 7.89 8.19
5/25/2022 9:45:00 PM 18.82 65.876 0.119 7.48 9.17 8.21
5/25/2022 10:00:00 PM 18.82 65.876 0.118 7.45 7.65 8.18
5/25/2022 10:15:00 PM 18.83 65.894 0.118 7.46 8.39 8.18
5/25/2022 10:30:00 PM 18.86 65.948 0.117 7.45 8.17 8.16
5/25/2022 10:45:00 PM 18.85 65.93 0.117 7.44 8.01 8.13
5/25/2022 11:00:00 PM 18.86 65.948 0.117 7.44 7.44 8.11
5/25/2022 11:15:00 PM 18.87 65.966 0.117 7.43 7.24 8.11
5/25/2022 11:30:00 PM 18.85 65.93 0.117 7.43 7.94 8.09
5/25/2022 11:45:00 PM 18.84 65.912 0.117 7.42 7.71 8.07
5/26/2022 12:00:00 AM 18.84 65.912 0.117 7.42 6.96 8.08
5/26/2022 12:15:00 AM 18.82 65.876 0.116 7.41 6.82 8.08
5/26/2022 12:30:00 AM 18.8 65.84 0.116 7.41 6.84 8.08
5/26/2022 12:45:00 AM 18.78 65.804 0.116 7.41 7.2 8.05
5/26/2022 1:00:00 AM 18.75 65.75 0.116 7.4 6.89 8
5/26/2022 1:15:00 AM 18.74 65.732 0.116 7.4 7.33 8.03
5/26/2022 1:30:00 AM 18.71 65.67799 0.116 7.4 6.65 7.98
5/26/2022 1:45:00 AM 18.68 65.624 0.116 7.4 7.11 8
5/26/2022 2:00:00 AM 18.65 65.57 0.116 7.4 7.02 8.01
5/26/2022 2:15:00 AM 18.62 65.516 0.116 7.39 6.92 8
5/26/2022 2:30:00 AM 18.59 65.462 0.116 7.38 6.13 7.97
5/26/2022 2:45:00 AM 18.55 65.39 0.116 7.38 7.33 8
5/26/2022 3:00:00 AM 18.52 65.336 0.117 7.38 6.84 7.92
5/26/2022 3:15:00 AM 18.49 65.282 0.117 7.38 7.23 7.96
5/26/2022 3:30:00 AM 18.45 65.21 0.117 7.38 7.19 7.99
5/26/2022 3:45:00 AM 18.4 65.12 0.117 7.38 6.38 7.98
5/26/2022 4:00:00 AM 18.37 65.066 0.117 7.38 6.14 7.97
5/26/2022 4:15:00 AM 18.32 64.976 0.118 7.35 5.98 7.97
5/26/2022 4:30:00 AM 18.28 64.904 0.118 7.37 6.62 7.95
5/26/2022 4:45:00 AM 18.24 64.832 0.118 7.36 6.26 7.9
5/26/2022 5:00:00 AM 18.19 64.742 0.118 7.37 7.06 7.93
5/26/2022 5:15:00 AM 18.13 64.634 0.118 7.36 6.41 7.95
5/26/2022 5:30:00 AM 18.08 64.544 0.119 7.37 5.83 7.99
5/26/2022 5:45:00 AM 18.04 64.472 0.119 7.36 6.16 7.93
5/26/2022 6:00:00 AM 18 64.4 0.119 7.37 5.83 8
5/26/2022 6:15:00 AM 17.96 64.328 0.119 7.37 5.93 7.99
5/26/2022 6:30:00 AM 17.94 64.292 0.119 7.36 5.83 7.94
5/26/2022 6:45:00 AM 17.91 64.238 0.119 7.36 5.49 7.97
5/26/2022 7:00:00 AM 17.86 64.148 0.12 7.37 5.99 8.12
5/26/2022 7:15:00 AM 17.84 64.112 0.12 7.37 6.08 8.03
5/26/2022 7:30:00 AM 17.81 64.058 0.12 7.37 5.87 8.07
5/26/2022 7:45:00 AM 17.78 64.004 0.12 7.38 5.54 8.11
5/26/2022 8:00:00 AM 17.76 63.968 0.12 7.39 5.82 8.19
5/26/2022 8:15:00 AM 17.75 63.95 0.12 7.38 5.8 8.09
5/26/2022 8:30:00 AM 17.72 63.896 0.12 7.4 5.19 8.18
5/26/2022 8:45:00 AM 17.72 63.896 0.121 7.4 5.53 8.24
5/26/2022 9:00:00 AM 17.74 63.932 0.121 7.4 5.44 8.19
5/26/2022 9:15:00 AM 17.77 63.986 0.121 7.41 5.85 8.32
5/26/2022 9:30:00 AM 17.81 64.058 0.121 7.42 5.6 8.37
5/26/2022 9:45:00 AM 17.87 64.166 0.121 7.43 5.34 8.43
5/26/2022 10:00:00 AM 17.98 64.364 0.121 7.41 5.85 8.38
5/26/2022 10:15:00 AM 18.16 64.688 0.121 7.44 5.36 8.43
5/26/2022 10:30:00 AM 18.28 64.904 0.121 7.44 4.89 8.42
5/26/2022 10:45:00 AM 18.46 65.228 0.122 7.45 4.91 8.46
5/26/2022 11:00:00 AM 18.64 65.552 0.122 7.46 4.8 8.46
5/26/2022 11:15:00 AM 18.89 66.002 0.122 7.48 4.82 8.49
5/26/2022 11:30:00 AM 19.14 66.452 0.122 7.48 4.76 8.46
5/26/2022 11:45:00 AM 19.52 67.136 0.122 7.5 4.81 8.48
5/26/2022 12:00:00 PM 19.76 67.568 0.123 7.5 4.78 8.44
5/26/2022 12:15:00 PM 20.07 68.126 0.123 7.5 4.55 8.44
5/26/2022 12:30:00 PM 20.35 68.63 0.123 7.5 4.46 8.38
5/26/2022 12:45:00 PM 20.63 69.134 0.123 7.51 4.19 8.36
5/26/2022 1:00:00 PM 20.8 69.44 0.123 7.5 4.34 8.33
5/26/2022 1:15:00 PM 21 69.8 0.124 7.53 4.64 8.34
5/26/2022 1:30:00 PM 21.28 70.304 0.124 7.53 4.24 8.26
5/26/2022 1:45:00 PM 21.51 70.718 0.124 7.54 4.49 8.27
5/26/2022 2:00:00 PM 21.7 71.06 0.124 7.53 4.72 8.22
5/26/2022 2:15:00 PM 21.85 71.33 0.124 7.54 4.42 8.17
5/26/2022 2:30:00 PM 22.02 71.636 0.124 7.55 4.41 8.13
5/26/2022 2:45:00 PM 22.11 71.798 0.125 7.55 4.41 8.07
5/26/2022 3:00:00 PM 22.17 71.906 0.125 7.55 4.71 8.11
5/26/2022 3:15:00 PM 22.25 72.05 0.125 7.57 4.45 8.04
5/26/2022 3:30:00 PM 22.22 71.996 0.125 7.56 4.47 8.09
5/26/2022 3:45:00 PM 22.12 71.816 0.125 7.57 5.05 8.06
5/26/2022 4:00:00 PM 22.03 71.654 0.126 7.57 4.25 8
5/26/2022 4:15:00 PM 21.89 71.402 0.126 7.57 4.74 8.01
5/26/2022 4:30:00 PM 21.77 71.186 0.126 7.56 4.22 7.97
5/26/2022 4:45:00 PM 21.62 70.916 0.126 7.55 4.83 7.88
5/26/2022 5:00:00 PM 21.41 70.538 0.127 7.54 4.6 7.88
5/26/2022 5:15:00 PM 21.33 70.394 0.127 7.52 4.85 7.82
5/26/2022 5:30:00 PM 21.24 70.232 0.127 7.48 4.98 7.79
5/26/2022 5:45:00 PM 21.11 69.998 0.128 7.51 4.64 7.77
5/26/2022 6:00:00 PM 20.99 69.782 0.128 7.5 5.05 7.79
5/26/2022 6:15:00 PM 20.9 69.62 0.128 7.49 4.77 7.75
5/26/2022 6:30:00 PM 20.81 69.458 0.128 7.48 4.15 7.71
5/26/2022 6:45:00 PM 20.78 69.404 0.128 7.47 4.42 7.64
5/26/2022 7:00:00 PM 20.72 69.296 0.129 7.46 4.51 7.64
5/26/2022 7:15:00 PM 20.64 69.152 0.129 7.46 4.85 7.69
5/26/2022 7:30:00 PM 20.6 69.08 0.129 7.44 4.38 7.66
5/26/2022 7:45:00 PM 20.56 69.008 0.129 7.45 4.84 7.59
5/26/2022 8:00:00 PM 20.48 68.864 0.13 7.44 4.93 7.64
5/26/2022 8:15:00 PM 20.45 68.81 0.13 7.43 4.81 7.54
5/26/2022 8:30:00 PM 20.37 68.666 0.13 7.43 4.47 7.54
5/26/2022 8:45:00 PM 20.31 68.558 0.13 7.42 4.69 7.56
5/26/2022 9:00:00 PM 20.24 68.432 0.13 7.41 4.78 7.58
5/26/2022 9:15:00 PM 20.16 68.288 0.131 7.42 4.66 7.57
5/26/2022 9:30:00 PM 20.07 68.126 0.131 7.41 4.77 7.56
5/26/2022 9:45:00 PM 20.01 68.018 0.131 7.41 5.09 7.53
5/26/2022 10:00:00 PM 19.94 67.892 0.131 7.41 5.84 7.56
5/26/2022 10:15:00 PM 19.88 67.784 0.132 7.4 5.05 7.51
5/26/2022 10:30:00 PM 19.77 67.586 0.132 7.4 5.68 7.58
5/26/2022 10:45:00 PM 19.72 67.496 0.132 7.4 5.1 7.57
5/26/2022 11:00:00 PM 19.61 67.298 0.132 7.41 5.29 7.65
5/26/2022 11:15:00 PM 19.54 67.172 0.132 7.4 5.1 7.66
5/26/2022 11:30:00 PM 19.5 67.1 0.133 7.4 4.99 7.64
5/26/2022 11:45:00 PM 19.41 66.938 0.133 7.41 5.55 7.71
5/27/2022 12:00:00 AM 19.39 66.902 0.133 7.39 4.83 7.6
5/27/2022 12:15:00 AM 19.31 66.758 0.133 7.4 4.91 7.72
5/27/2022 12:30:00 AM 19.3 66.74 0.133 7.4 4.41 7.65
5/27/2022 12:45:00 AM 19.23 66.614 0.133 7.4 4.61 7.67
5/27/2022 1:00:00 AM 19.21 66.578 0.133 7.39 5 7.66
5/27/2022 1:15:00 AM 19.16 66.488 0.134 7.4 4.79 7.68
5/27/2022 1:30:00 AM 19.11 66.398 0.134 7.39 5.66 7.66
5/27/2022 1:45:00 AM 19.1 66.38 0.134 7.37 5.83 7.58
5/27/2022 2:00:00 AM 19.04 66.272 0.134 7.39 4.66 7.65
5/27/2022 2:15:00 AM 19.01 66.218 0.134 7.39 5.73 7.66
5/27/2022 2:30:00 AM 18.99 66.182 0.134 7.39 5.25 7.68
5/27/2022 2:45:00 AM 18.97 66.146 0.134 7.39 4.66 7.67
5/27/2022 3:00:00 AM 18.98 66.164 0.134 7.36 4.87 7.55
5/27/2022 3:15:00 AM 18.95 66.11 0.135 7.37 5.03 7.6
5/27/2022 3:30:00 AM 18.93 66.074 0.135 7.37 4.91 7.62
5/27/2022 3:45:00 AM 18.91 66.038 0.135 7.38 4.31 7.63
5/27/2022 4:00:00 AM 18.9 66.02 0.135 7.38 4.87 7.64
5/27/2022 4:15:00 AM 18.89 66.002 0.135 7.37 4.53 7.61
5/27/2022 4:30:00 AM 18.86 65.948 0.135 7.38 4.69 7.71
5/27/2022 4:45:00 AM 18.87 65.966 0.135 7.37 4.43 7.62
5/27/2022 5:00:00 AM 18.86 65.948 0.135 7.37 6.08 7.61
5/27/2022 5:15:00 AM 18.84 65.912 0.135 7.38 5.08 7.65
5/27/2022 5:30:00 AM 18.84 65.912 0.135 7.36 4.82 7.59
5/27/2022 5:45:00 AM 18.82 65.876 0.135 7.37 4.55 7.64
5/27/2022 6:00:00 AM 18.81 65.858 0.135 7.38 4.7 7.66
5/27/2022 6:15:00 AM 18.81 65.858 0.136 7.35 5.17 7.58
5/27/2022 6:30:00 AM 18.81 65.858 0.136 7.37 4.87 7.58
5/27/2022 6:45:00 AM 18.81 65.858 0.136 7.37 4.65 7.63
5/27/2022 7:00:00 AM 18.82 65.876 0.136 7.37 4.47 7.6
5/27/2022 7:15:00 AM 18.82 65.876 0.136 7.37 4.27 7.56
5/27/2022 7:30:00 AM 18.83 65.894 0.136 7.37 4.45 7.59
5/27/2022 7:45:00 AM 18.84 65.912 0.136 7.37 4.65 7.61
5/27/2022 8:00:00 AM 18.86 65.948 0.135 7.38 4.43 7.66
5/27/2022 8:15:00 AM 18.89 66.002 0.135 7.39 4.25 7.75
5/27/2022 8:30:00 AM 18.9 66.02 0.135 7.38 4.35 7.68
5/27/2022 8:45:00 AM 18.94 66.092 0.135 7.39 4.27 7.72
5/27/2022 9:00:00 AM 18.98 66.164 0.135 7.39 4.39 7.78
5/27/2022 9:15:00 AM 19.01 66.218 0.135 7.41 4.47 7.81
5/27/2022 9:30:00 AM 19.04 66.272 0.135 7.42 5.59 7.76
5/27/2022 9:45:00 AM 19.07 66.326 0.135 7.43 4.71 7.84
5/27/2022 10:00:00 AM 19.09 66.362 0.135 7.42 4.21 7.81
5/27/2022 10:15:00 AM 19.11 66.398 0.135 7.42 4.02 7.82
5/27/2022 10:30:00 AM 19.14 66.452 0.135 7.43 3.86 7.85
5/27/2022 10:45:00 AM 19.15 66.47 0.135 7.43 3.86 7.83
5/27/2022 11:00:00 AM 19.19 66.542 0.135 7.43 4.03 7.87
5/27/2022 11:15:00 AM 19.24 66.632 0.135 7.44 3.87 7.86
5/27/2022 11:30:00 AM 19.33 66.794 0.135 7.45 3.89 7.9
5/27/2022 11:45:00 AM 19.45 67.01 0.135 7.47 4.02 8.03
5/27/2022 12:00:00 PM 19.53 67.154 0.135 7.48 3.89 8.08
5/27/2022 12:15:00 PM 19.6 67.28 0.135 7.49 4.12 8.09
5/27/2022 12:30:00 PM 19.66 67.388 0.135 7.5 3.78 8.06
5/27/2022 12:45:00 PM 19.69 67.442 0.135 7.5 3.79 8.11
5/27/2022 1:00:00 PM 19.68 67.424 0.135 7.51 4.41 8.09
5/27/2022 1:15:00 PM 19.69 67.442 0.135 7.5 4.04 8.02
5/27/2022 1:30:00 PM 19.73 67.514 0.135 7.51 3.96 8.11
5/27/2022 1:45:00 PM 19.79 67.622 0.135 7.48 3.93 8.07
5/27/2022 2:00:00 PM 19.82 67.676 0.135 7.52 3.87 8.09
5/27/2022 2:15:00 PM 19.82 67.676 0.135 7.52 3.89 8.08
5/27/2022 2:30:00 PM 19.82 67.676 0.135 7.52 4.11 8.08
5/27/2022 2:45:00 PM 19.79 67.622 0.136 7.51 3.94 8.01
5/27/2022 3:00:00 PM 19.72 67.496 0.135 7.5 3.9 7.95
5/27/2022 3:15:00 PM 19.66 67.388 0.135 7.5 3.69 7.88
5/27/2022 3:30:00 PM 19.63 67.334 0.135 7.48 4.38 7.8
5/27/2022 3:45:00 PM 19.64 67.352 0.134 7.49 4.51 7.88
5/27/2022 4:00:00 PM 19.65 67.37 0.134 7.48 6.26 7.9
5/27/2022 4:15:00 PM 19.68 67.424 0.135 7.49 5.06 7.87
5/27/2022 4:30:00 PM 19.71 67.478 0.135 7.5 4.55 7.94
5/27/2022 4:45:00 PM 19.76 67.568 0.134 7.51 4.67 8.03
5/27/2022 5:00:00 PM 19.79 67.622 0.135 7.51 4.76 8.01
5/27/2022 5:15:00 PM 19.84 67.712 0.135 7.5 4.46 8.02
5/27/2022 5:30:00 PM 19.88 67.784 0.135 7.53 4.33 8.09
5/27/2022 5:45:00 PM 19.93 67.874 0.135 7.53 4.31 8.08
5/27/2022 6:00:00 PM 19.97 67.946 0.135 7.55 4.54 8.12
5/27/2022 6:15:00 PM 19.98 67.964 0.135 7.54 4.26 8.05
5/27/2022 6:30:00 PM 19.95 67.91 0.136 7.54 4.67 8.08
5/27/2022 6:45:00 PM 19.91 67.838 0.136 7.54 4.93 8
5/27/2022 7:00:00 PM 19.87 67.766 0.136 7.53 4.42 7.97
5/27/2022 7:15:00 PM 19.79 67.622 0.136 7.53 4.57 7.96
5/27/2022 7:30:00 PM 19.77 67.586 0.136 7.51 5.35 7.89
5/27/2022 7:45:00 PM 19.69 67.442 0.136 7.51 5.16 7.83
5/27/2022 8:00:00 PM 19.63 67.334 0.136 7.5 5.18 7.87
5/27/2022 8:15:00 PM 19.56 67.208 0.136 7.49 4.95 7.84
5/27/2022 8:30:00 PM 19.49 67.082 0.136 7.48 5.43 7.77
5/27/2022 8:45:00 PM 19.4 66.92 0.136 7.47 5.1 7.78
5/27/2022 9:00:00 PM 19.34 66.812 0.137 7.46 4.71 7.72
5/27/2022 9:15:00 PM 19.32 66.776 0.137 7.45 4.8 7.65
5/27/2022 9:30:00 PM 19.21 66.578 0.137 7.45 4.91 7.74
5/27/2022 9:45:00 PM 19.13 66.434 0.137 7.45 5.21 7.75
5/27/2022 10:00:00 PM 19.1 66.38 0.137 7.43 4.74 7.66
5/27/2022 10:15:00 PM 19.07 66.326 0.137 7.42 4.69 7.64
5/27/2022 10:30:00 PM 19 66.2 0.137 7.43 5.16 7.7
5/27/2022 10:45:00 PM 18.96 66.128 0.138 7.43 5.37 7.75
5/27/2022 11:00:00 PM 18.94 66.092 0.138 7.42 4.89 7.64
5/27/2022 11:15:00 PM 18.88 65.984 0.138 7.41 5.09 7.71
5/27/2022 11:30:00 PM 18.85 65.93 0.138 7.43 5.12 7.74
5/27/2022 11:45:00 PM 18.8 65.84 0.138 7.43 5.05 7.74
5/28/2022 12:00:00 AM 18.76 65.768 0.138 7.42 5.86 7.67
5/28/2022 12:15:00 AM 18.73 65.714 0.138 7.41 5.45 7.71
5/28/2022 12:30:00 AM 18.67 65.606 0.138 7.41 5.67 7.7
5/28/2022 12:45:00 AM 18.66 65.588 0.138 7.41 4.75 7.65
5/28/2022 1:00:00 AM 18.58 65.444 0.139 7.41 5.08 7.73
5/28/2022 1:15:00 AM 18.54 65.372 0.139 7.41 5.43 7.8
5/28/2022 1:30:00 AM 18.49 65.282 0.139 7.42 4.73 7.83
5/28/2022 1:45:00 AM 18.46 65.228 0.139 7.42 4.41 7.8
5/28/2022 2:00:00 AM 18.42 65.156 0.139 7.41 5.04 7.86
5/28/2022 2:15:00 AM 18.38 65.084 0.139 7.41 4.96 7.77
5/28/2022 2:30:00 AM 18.34 65.012 0.139 7.41 4.51 7.82
5/28/2022 2:45:00 AM 18.28 64.904 0.139 7.42 5.19 7.86
5/28/2022 3:00:00 AM 18.26 64.868 0.139 7.41 4.84 7.84
5/28/2022 3:15:00 AM 18.22 64.796 0.139 7.41 5.2 7.84
5/28/2022 3:30:00 AM 18.19 64.742 0.139 7.41 6.06 7.85
5/28/2022 3:45:00 AM 18.16 64.688 0.139 7.41 4.8 7.84
5/28/2022 4:00:00 AM 18.11 64.598 0.139 7.41 5.02 7.88
5/28/2022 4:15:00 AM 18.06 64.508 0.139 7.42 5.12 7.92
5/28/2022 4:30:00 AM 18.02 64.436 0.14 7.41 5.18 7.93
5/28/2022 4:45:00 AM 18.01 64.418 0.14 7.4 5.39 7.84
5/28/2022 5:00:00 AM 18 64.4 0.14 7.37 5.15 7.82
5/28/2022 5:15:00 AM 17.94 64.292 0.14 7.41 5.48 7.94
5/28/2022 5:30:00 AM 17.94 64.292 0.14 7.4 5.6 7.82
5/28/2022 5:45:00 AM 17.9 64.22 0.14 7.4 5.14 7.88
5/28/2022 6:00:00 AM 17.91 64.238 0.14 7.4 5.29 7.85
5/28/2022 6:15:00 AM 17.9 64.22 0.14 7.39 5.02 7.81
5/28/2022 6:30:00 AM 17.88 64.184 0.14 7.4 5.12 7.9
5/28/2022 6:45:00 AM 17.86 64.148 0.14 7.4 4.97 7.9
5/28/2022 7:00:00 AM 17.85 64.13 0.14 7.41 5.29 7.94
5/28/2022 7:15:00 AM 17.83 64.094 0.14 7.42 5.08 8
5/28/2022 7:30:00 AM 17.83 64.094 0.14 7.42 4.81 8.03
5/28/2022 7:45:00 AM 17.87 64.166 0.14 7.44 5.38 8.16
5/28/2022 8:00:00 AM 17.91 64.238 0.14 7.44 4.79 8.15
5/28/2022 8:15:00 AM 17.94 64.292 0.14 7.44 4.54 8.14
5/28/2022 8:30:00 AM 17.99 64.382 0.14 7.46 5.26 8.22
5/28/2022 8:45:00 AM 18.01 64.418 0.14 7.46 9.34 8.14
5/28/2022 9:00:00 AM 18.05 64.49 0.14 7.47 4.77 8.23
5/28/2022 9:15:00 AM 18.08 64.544 0.14 7.48 4.53 8.24
5/28/2022 9:30:00 AM 18.11 64.598 0.14 7.47 4.63 8.18
5/28/2022 9:45:00 AM 18.14 64.652 0.14 7.48 4.59 8.23
5/28/2022 10:00:00 AM 18.17 64.706 0.14 7.5 4.42 8.29
5/28/2022 10:15:00 AM 18.21 64.778 0.14 7.5 4.05 8.26
5/28/2022 10:30:00 AM 18.28 64.904 0.14 7.5 4.51 8.29
5/28/2022 10:45:00 AM 18.37 65.066 0.14 7.52 4.51 8.36
5/28/2022 11:00:00 AM 18.52 65.336 0.14 7.52 4.39 8.37
5/28/2022 11:15:00 AM 18.72 65.696 0.14 7.54 4.62 8.38
5/28/2022 11:30:00 AM 18.83 65.894 0.14 7.53 4.41 8.37
5/28/2022 11:45:00 AM 19.07 66.326 0.14 7.55 4.21 8.37
5/28/2022 12:00:00 PM 19.16 66.488 0.14 7.54 3.95 8.35
5/28/2022 12:15:00 PM 19.28 66.704 0.14 7.56 4.18 8.38
5/28/2022 12:30:00 PM 19.44 66.992 0.14 7.57 4.56 8.38
5/28/2022 12:45:00 PM 19.51 67.118 0.14 7.56 8.71 8.29
5/28/2022 1:00:00 PM 19.48 67.064 0.14 7.58 4.31 8.29
5/28/2022 1:15:00 PM 19.47 67.046 0.14 7.55 4.25 8.33
5/28/2022 1:30:00 PM 19.59 67.262 0.14 7.59 6.97 8.32
5/28/2022 1:45:00 PM 19.65 67.37 0.14 7.58 5.51 8.33
5/28/2022 2:00:00 PM 19.79 67.622 0.14 7.59 4.15 8.34
5/28/2022 2:15:00 PM 20.01 68.018 0.14 7.59 6.46 8.31
5/28/2022 2:30:00 PM 19.93 67.874 0.14 7.59 5.68 8.19
5/28/2022 2:45:00 PM 19.93 67.874 0.14 7.57 3.9 8.17
5/28/2022 3:00:00 PM 19.98 67.964 0.14 7.58 7.08 8.16
5/28/2022 3:15:00 PM 19.96 67.92799 0.14 7.58 5.88 8.18
5/28/2022 3:30:00 PM 20.22 68.396 0.14 7.59 3.78 8.22
5/28/2022 3:45:00 PM 20.22 68.396 0.14 7.6 3.68 8.18
5/28/2022 4:00:00 PM 20.23 68.414 0.14 7.6 3.89 8.21
5/28/2022 4:15:00 PM 20.27 68.486 0.14 7.6 3.64 8.21
5/28/2022 4:30:00 PM 20.34 68.612 0.14 7.61 3.72 8.22
5/28/2022 4:45:00 PM 20.33 68.594 0.14 7.57 3.74 8.21
5/28/2022 5:00:00 PM 20.31 68.558 0.14 7.6 4.07 8.16
5/28/2022 5:15:00 PM 20.28 68.504 0.14 7.6 4.03 8.17
5/28/2022 5:30:00 PM 20.24 68.432 0.14 7.59 4.21 8.12
5/28/2022 5:45:00 PM 20.15 68.27 0.14 7.59 3.75 8.13
5/28/2022 6:00:00 PM 20.06 68.108 0.14 7.59 3.76 8.11
5/28/2022 6:15:00 PM 20 68 0.14 7.58 4.29 8.09
5/28/2022 6:30:00 PM 19.94 67.892 0.14 7.58 4.06 8.03
5/28/2022 6:45:00 PM 19.89 67.802 0.14 7.56 4.12 8.02
5/28/2022 7:00:00 PM 19.87 67.766 0.14 7.55 4.36 7.99
5/28/2022 7:15:00 PM 19.79 67.622 0.14 7.55 4.42 7.99
5/28/2022 7:30:00 PM 19.7 67.46 0.14 7.55 4.86 7.98
5/28/2022 7:45:00 PM 19.61 67.298 0.14 7.53 4.38 7.91
5/28/2022 8:00:00 PM 19.55 67.19 0.14 7.52 4.17 7.86
5/28/2022 8:15:00 PM 19.45 67.01 0.14 7.51 3.83 7.86
5/28/2022 8:30:00 PM 19.38 66.884 0.141 7.5 4.33 7.82
5/28/2022 8:45:00 PM 19.28 66.704 0.141 7.48 5.06 7.82
5/28/2022 9:00:00 PM 19.24 66.632 0.141 7.48 5.2 7.73
5/28/2022 9:15:00 PM 19.16 66.488 0.141 7.47 4.08 7.75
5/28/2022 9:30:00 PM 19.1 66.38 0.141 7.46 5.98 7.73
5/28/2022 9:45:00 PM 19 66.2 0.141 7.46 4.93 7.76
5/28/2022 10:00:00 PM 18.93 66.074 0.141 7.46 4.75 7.77
5/28/2022 10:15:00 PM 18.86 65.948 0.141 7.45 4.59 7.79
5/28/2022 10:30:00 PM 18.78 65.804 0.141 7.45 5.33 7.76
5/28/2022 10:45:00 PM 18.71 65.67799 0.141 7.44 4.39 7.74
5/28/2022 11:00:00 PM 18.61 65.498 0.141 7.44 4.43 7.79
5/28/2022 11:15:00 PM 18.5 65.3 0.141 7.44 4.85 7.85
5/28/2022 11:30:00 PM 18.43 65.174 0.141 7.42 4.54 7.88
5/28/2022 11:45:00 PM 18.37 65.066 0.141 7.43 4.61 7.78
5/29/2022 12:00:00 AM 18.27 64.886 0.142 7.43 4.48 7.87
5/29/2022 12:15:00 AM 18.18 64.724 0.142 7.42 4.62 7.91
5/29/2022 12:30:00 AM 18.13 64.634 0.142 7.43 4.53 7.85
5/29/2022 12:45:00 AM 18.04 64.472 0.142 7.42 4.52 7.85
5/29/2022 1:00:00 AM 17.92 64.256 0.142 7.43 4.71 7.92
5/29/2022 1:15:00 AM 17.82 64.076 0.142 7.43 4.51 7.95
5/29/2022 1:30:00 AM 17.72 63.896 0.142 7.43 4.43 7.99
5/29/2022 1:45:00 AM 17.71 63.878 0.142 7.41 4.35 7.9
5/29/2022 2:00:00 AM 17.59 63.662 0.142 7.42 4.86 7.94
5/29/2022 2:15:00 AM 17.51 63.518 0.142 7.41 4.86 8.02
5/29/2022 2:30:00 AM 17.43 63.374 0.142 7.42 4.37 8.05
5/29/2022 2:45:00 AM 17.34 63.212 0.142 7.42 4.89 8.08
5/29/2022 3:00:00 AM 17.26 63.068 0.142 7.42 4.63 8.1
5/29/2022 3:15:00 AM 17.26 63.068 0.142 7.4 4.59 8
5/29/2022 3:30:00 AM 17.15 62.87 0.142 7.38 5.04 8.1
5/29/2022 3:45:00 AM 17.08 62.744 0.142 7.39 4.84 8.07
5/29/2022 4:00:00 AM 16.98 62.564 0.142 7.39 4.77 8.12
5/29/2022 4:15:00 AM 16.97 62.546 0.142 7.36 4.59 8.11
5/29/2022 4:30:00 AM 16.86 62.348 0.142 7.4 4.73 8.2
5/29/2022 4:45:00 AM 16.84 62.312 0.142 7.39 5.06 8.16
5/29/2022 5:00:00 AM 16.79 62.222 0.142 7.39 4.81 8.14
5/29/2022 5:15:00 AM 16.74 62.132 0.142 7.39 6.3 8.15
5/29/2022 5:30:00 AM 16.68 62.024 0.142 7.39 5.29 8.16
5/29/2022 5:45:00 AM 16.65 61.97 0.142 7.39 4.92 8.21
5/29/2022 6:00:00 AM 16.62 61.916 0.142 7.39 4.72 8.21
5/29/2022 6:15:00 AM 16.63 61.934 0.142 7.39 15.68 8.15
5/29/2022 6:30:00 AM 16.64 61.952 0.142 7.36 14.96 8.13
5/29/2022 6:45:00 AM 16.64 61.952 0.142 7.4 8.41 8.22
5/29/2022 7:00:00 AM 16.64 61.952 0.142 7.41 5.89 8.23
5/29/2022 7:15:00 AM 16.65 61.97 0.142 7.42 5.47 8.3
5/29/2022 7:30:00 AM 16.65 61.97 0.142 7.43 4.26 8.28
5/29/2022 7:45:00 AM 16.67 62.006 0.142 7.44 7.29 8.39
5/29/2022 8:00:00 AM 16.68 62.024 0.142 7.45 7.11 8.37
5/29/2022 8:15:00 AM 16.71 62.078 0.142 7.45 5.81 8.46
5/29/2022 8:30:00 AM 16.77 62.186 0.142 7.47 5.28 8.41
5/29/2022 8:45:00 AM 16.85 62.33 0.142 7.46 4.52 8.47
5/29/2022 9:00:00 AM 16.92 62.456 0.142 7.48 4.48 8.52
5/29/2022 9:15:00 AM 17.04 62.672 0.142 7.48 4.41 8.5
5/29/2022 9:30:00 AM 17.2 62.96 0.142 7.5 4.61 8.55
5/29/2022 9:45:00 AM 17.35 63.23 0.142 7.51 4.25 8.56
5/29/2022 10:00:00 AM 17.52 63.536 0.142 7.51 4.3 8.49
5/29/2022 10:15:00 AM 17.72 63.896 0.142 7.5 4.53 8.55
5/29/2022 10:30:00 AM 17.99 64.382 0.142 7.54 4.3 8.62
5/29/2022 10:45:00 AM 18.14 64.652 0.142 7.54 4.21 8.59
5/29/2022 11:00:00 AM 18.25 64.85 0.142 7.53 4.01 8.45
5/29/2022 11:15:00 AM 18.42 65.156 0.142 7.55 3.81 8.47
5/29/2022 11:30:00 AM 18.67 65.606 0.142 7.56 3.96 8.52
5/29/2022 11:45:00 AM 19 66.2 0.142 7.57 3.81 8.58
5/29/2022 12:00:00 PM 19.19 66.542 0.142 7.58 4.36 8.52
5/29/2022 12:15:00 PM 19.29 66.722 0.142 7.58 4.91 8.5
5/29/2022 12:30:00 PM 19.23 66.614 0.142 7.58 3.7 8.43
5/29/2022 12:45:00 PM 19.48 67.064 0.142 7.58 4.5 8.43
5/29/2022 1:00:00 PM 19.75 67.55 0.142 7.59 4.13 8.48
5/29/2022 1:15:00 PM 19.93 67.874 0.142 7.59 3.9 8.46
5/29/2022 1:30:00 PM 20.11 68.198 0.142 7.59 3.77 8.39
5/29/2022 1:45:00 PM 20.66 69.188 0.142 7.62 6.91 8.42
5/29/2022 2:00:00 PM 20.97 69.746 0.142 7.61 3.69 8.37
5/29/2022 2:15:00 PM 21.22 70.196 0.142 7.62 4.14 8.32
5/29/2022 2:30:00 PM 21.46 70.628 0.142 7.63 3.54 8.31
5/29/2022 2:45:00 PM 21.7 71.06 0.142 7.64 4.19 8.3
5/29/2022 3:00:00 PM 21.76 71.168 0.142 7.63 3.91 8.23
5/29/2022 3:15:00 PM 21.94 71.492 0.142 7.62 3.7 8.23
5/29/2022 3:30:00 PM 21.99 71.582 0.142 7.64 3.76 8.18
5/29/2022 3:45:00 PM 21.99 71.582 0.142 7.64 3.69 8.18
5/29/2022 4:00:00 PM 22.02 71.636 0.142 7.63 4.9 8.14
5/29/2022 4:15:00 PM 21.97 71.546 0.142 7.63 3.68 8.04
5/29/2022 4:30:00 PM 21.9 71.42 0.142 7.61 3.9 8
5/29/2022 4:45:00 PM 21.77 71.186 0.143 7.6 4.57 7.96
5/29/2022 5:00:00 PM 21.66 70.988 0.143 7.6 3.88 7.89
5/29/2022 5:15:00 PM 21.58 70.844 0.143 7.6 3.52 7.9
5/29/2022 5:30:00 PM 21.43 70.574 0.143 7.58 4.7 7.76
5/29/2022 5:45:00 PM 21.37 70.466 0.143 7.56 3.89 7.83
5/29/2022 6:00:00 PM 21.29 70.32201 0.143 7.57 3.94 7.83
5/29/2022 6:15:00 PM 21.22 70.196 0.143 7.56 4.21 7.79
5/29/2022 6:30:00 PM 21.12 70.016 0.143 7.55 4.4 7.81
5/29/2022 6:45:00 PM 21.06 69.908 0.143 7.54 3.56 7.73
5/29/2022 7:00:00 PM 20.99 69.782 0.143 7.53 3.87 7.78
5/29/2022 7:15:00 PM 20.91 69.638 0.143 7.52 3.82 7.73
5/29/2022 7:30:00 PM 20.86 69.548 0.143 7.51 4.27 7.61
5/29/2022 7:45:00 PM 20.77 69.386 0.143 7.5 4.02 7.57
5/29/2022 8:00:00 PM 20.72 69.296 0.144 7.48 4.3 7.45
5/29/2022 8:15:00 PM 20.64 69.152 0.144 7.47 4.23 7.52
5/29/2022 8:30:00 PM 20.56 69.008 0.144 7.47 4.37 7.44
5/29/2022 8:45:00 PM 20.45 68.81 0.144 7.45 4.08 7.41
5/29/2022 9:00:00 PM 20.38 68.684 0.144 7.45 5.11 7.56
5/29/2022 9:15:00 PM 20.31 68.558 0.144 7.44 4.29 7.55
5/29/2022 9:30:00 PM 20.21 68.378 0.144 7.44 4.56 7.53
5/29/2022 9:45:00 PM 20.17 68.306 0.144 7.44 4.47 7.5
5/29/2022 10:00:00 PM 20.11 68.198 0.144 7.43 4.46 7.5
5/29/2022 10:15:00 PM 19.95 67.91 0.144 7.44 4.58 7.58
5/29/2022 10:30:00 PM 19.9 67.82 0.144 7.42 4.89 7.49
5/29/2022 10:45:00 PM 19.84 67.712 0.144 7.42 4.61 7.48
5/29/2022 11:00:00 PM 19.73 67.514 0.144 7.42 4.68 7.52
5/29/2022 11:15:00 PM 19.65 67.37 0.144 7.42 4.38 7.52
5/29/2022 11:30:00 PM 19.53 67.154 0.145 7.42 4.51 7.56
5/29/2022 11:45:00 PM 19.46 67.028 0.145 7.42 4.27 7.57
5/30/2022 12:00:00 AM 19.34 66.812 0.145 7.42 4.22 7.61
5/30/2022 12:15:00 AM 19.22 66.596 0.145 7.41 4.61 7.64
5/30/2022 12:30:00 AM 19.13 66.434 0.145 7.42 4.33 7.67
5/30/2022 12:45:00 AM 19.03 66.254 0.145 7.41 4.38 7.68
5/30/2022 1:00:00 AM 18.98 66.164 0.145 7.41 4.67 7.63
5/30/2022 1:15:00 AM 18.86 65.948 0.145 7.41 4.16 7.7
5/30/2022 1:30:00 AM 18.73 65.714 0.145 7.41 5.22 7.73
5/30/2022 1:45:00 AM 18.68 65.624 0.145 7.4 4.27 7.67
5/30/2022 2:00:00 AM 18.61 65.498 0.145 7.39 4.65 7.68
5/30/2022 2:15:00 AM 18.48 65.264 0.145 7.4 4.79 7.72
5/30/2022 2:30:00 AM 18.44 65.192 0.145 7.39 5.36 7.75
5/30/2022 2:45:00 AM 18.32 64.976 0.145 7.39 4.57 7.78
5/30/2022 3:00:00 AM 18.25 64.85 0.145 7.39 4.75 7.76
5/30/2022 3:15:00 AM 18.21 64.778 0.145 7.39 4.43 7.75
5/30/2022 3:30:00 AM 18.09 64.562 0.145 7.38 4.14 7.81
5/30/2022 3:45:00 AM 18.02 64.436 0.145 7.39 4.29 7.79
5/30/2022 4:00:00 AM 17.91 64.238 0.145 7.39 4.47 7.86
5/30/2022 4:15:00 AM 17.94 64.292 0.145 7.38 4.41 7.75
5/30/2022 4:30:00 AM 17.81 64.058 0.145 7.38 4.73 7.8
5/30/2022 4:45:00 AM 17.81 64.058 0.145 7.35 4.68 7.75
5/30/2022 5:00:00 AM 17.69 63.842 0.145 7.38 4.86 7.84
5/30/2022 5:15:00 AM 17.6 63.68 0.145 7.38 6.81 7.85
5/30/2022 5:30:00 AM 17.52 63.536 0.144 7.38 4.57 7.9
5/30/2022 5:45:00 AM 17.49 63.482 0.144 7.37 10.68 7.83
5/30/2022 6:00:00 AM 17.47 63.446 0.144 7.37 4.26 7.85
5/30/2022 6:15:00 AM 17.41 63.338 0.144 7.38 4.1 7.93
5/30/2022 6:30:00 AM 17.33 63.194 0.144 7.37 5.05 7.88
5/30/2022 6:45:00 AM 17.32 63.176 0.145 7.36 4.48 7.78
5/30/2022 7:00:00 AM 17.31 63.158 0.145 7.37 4.53 7.86
5/30/2022 7:15:00 AM 17.26 63.068 0.144 7.38 4.07 7.97
5/30/2022 7:30:00 AM 17.27 63.086 0.145 7.37 4.21 7.78
5/30/2022 7:45:00 AM 17.24 63.032 0.144 7.38 3.99 8.08
5/30/2022 8:00:00 AM 17.26 63.068 0.144 7.38 4.75 8
5/30/2022 8:15:00 AM 17.29 63.122 0.144 7.38 3.97 7.83
5/30/2022 8:30:00 AM 17.31 63.158 0.144 7.38 3.88 7.79
5/30/2022 8:45:00 AM 17.36 63.248 0.144 7.38 4.06 7.93
5/30/2022 9:00:00 AM 17.45 63.41 0.144 7.4 4.4 8.08
5/30/2022 9:15:00 AM 17.59 63.662 0.144 7.41 4.61 8.16
5/30/2022 9:30:00 AM 17.78 64.004 0.144 7.44 4.02 8.35
5/30/2022 9:45:00 AM 17.9 64.22 0.144 7.43 5.04 8.24
5/30/2022 10:00:00 AM 18.05 64.49 0.144 7.46 4.5 8.38
5/30/2022 10:15:00 AM 18.19 64.742 0.144 7.47 3.8 8.45
5/30/2022 10:30:00 AM 18.31 64.958 0.144 7.48 3.8 8.47
5/30/2022 10:45:00 AM 18.48 65.264 0.144 7.5 3.77 8.47
5/30/2022 11:00:00 AM 18.62 65.516 0.144 7.5 3.52 8.46
5/30/2022 11:15:00 AM 18.83 65.894 0.144 7.51 3.49 8.4
5/30/2022 11:30:00 AM 19.08 66.344 0.143 7.53 3.69 8.46
5/30/2022 11:45:00 AM 19.28 66.704 0.143 7.53 3.49 8.36
5/30/2022 12:00:00 PM 19.53 67.154 0.143 7.55 3.83 8.48
5/30/2022 12:15:00 PM 19.85 67.73 0.143 7.55 3.94 8.44
5/30/2022 12:30:00 PM 20.17 68.306 0.143 7.56 3.54 8.4
5/30/2022 12:45:00 PM 20.5 68.9 0.143 7.57 3.9 8.41
5/30/2022 1:00:00 PM 20.93 69.674 0.143 7.57 3.64 8.33
5/30/2022 1:15:00 PM 21.28 70.304 0.143 7.57 4.23 8.3
5/30/2022 1:30:00 PM 21.71 71.078 0.144 7.59 4.16 8.32
5/30/2022 1:45:00 PM 22.05 71.69 0.144 7.59 4.08 8.24
5/30/2022 2:00:00 PM 22.36 72.248 0.144 7.6 4.42 8.18
5/30/2022 2:15:00 PM 22.71 72.878 0.144 7.6 3.75 8.1
5/30/2022 2:30:00 PM 22.98 73.364 0.144 7.61 3.64 8.02
5/30/2022 2:45:00 PM 23.23 73.814 0.144 7.61 4.12 8.07
5/30/2022 3:00:00 PM 23.38 74.084 0.144 7.61 3.73 7.9
5/30/2022 3:15:00 PM 23.57 74.426 0.144 7.61 4.25 8.01
5/30/2022 3:30:00 PM 23.65 74.57 0.144 7.63 3.7 7.96
5/30/2022 3:45:00 PM 23.69 74.642 0.144 7.62 4.02 7.91
5/30/2022 4:00:00 PM 23.7 74.66 0.144 7.61 4.17 7.83
5/30/2022 4:15:00 PM 23.64 74.552 0.144 7.59 3.54 7.75
5/30/2022 4:30:00 PM 23.51 74.318 0.144 7.59 5.89 7.7
5/30/2022 4:45:00 PM 23.49 74.282 0.144 7.59 3.78 7.74
5/30/2022 5:00:00 PM 23.43 74.174 0.144 7.58 9.04 7.65
5/30/2022 5:15:00 PM 23.34 74.012 0.144 7.57 3.97 7.39
5/30/2022 5:30:00 PM 23.29 73.922 0.144 7.56 4 7.6
5/30/2022 5:45:00 PM 23.18 73.724 0.145 7.55 3.77 7.48
5/30/2022 6:00:00 PM 23.1 73.58 0.145 7.55 3.83 7.47
5/30/2022 6:15:00 PM 23 73.4 0.145 7.54 3.88 7.49
5/30/2022 6:30:00 PM 22.88 73.184 0.145 7.52 11.09 7.41
5/30/2022 6:45:00 PM 22.84 73.112 0.145 7.51 8.64 7.35
5/30/2022 7:00:00 PM 22.81 73.058 0.145 7.49 6.99 7.16
5/30/2022 7:15:00 PM 22.72 72.896 0.145 7.49 4.27 7.3
5/30/2022 7:30:00 PM 22.62 72.716 0.145 7.48 4.68 7.22
5/30/2022 7:45:00 PM 22.58 72.644 0.145 7.46 4.11 7.15
5/30/2022 8:00:00 PM 22.45 72.41 0.145 7.46 4.3 7.25
5/30/2022 8:15:00 PM 22.43 72.374 0.145 7.44 4.3 7.14
5/30/2022 8:30:00 PM 22.36 72.248 0.145 7.42 4.12 7.02
5/30/2022 8:45:00 PM 22.3 72.14 0.145 7.42 4.02 7.02
5/30/2022 9:00:00 PM 22.21 71.978 0.145 7.42 4.67 7.1
5/30/2022 9:15:00 PM 22.17 71.906 0.145 7.41 4.54 7.05
5/30/2022 9:30:00 PM 22.12 71.816 0.146 7.41 3.78 7.01
5/30/2022 9:45:00 PM 22.04 71.672 0.146 7.37 3.7 6.99
5/30/2022 10:00:00 PM 21.98 71.564 0.146 7.39 3.96 6.99
5/30/2022 10:15:00 PM 21.92 71.456 0.146 7.39 4.07 6.98
5/30/2022 10:30:00 PM 21.85 71.33 0.146 7.38 3.88 6.97
5/30/2022 10:45:00 PM 21.73 71.114 0.146 7.38 4.37 7.05
5/30/2022 11:00:00 PM 21.72 71.096 0.146 7.37 4.13 7.01
5/30/2022 11:15:00 PM 21.63 70.934 0.146 7.37 3.81 7.06
5/30/2022 11:30:00 PM 21.59 70.862 0.146 7.37 4.09 7.02
5/30/2022 11:45:00 PM 21.5 70.7 0.146 7.37 4.39 7.02
5/31/2022 12:00:00 AM 21.44 70.592 0.146 7.35 3.92 6.99
5/31/2022 12:15:00 AM 21.32 70.376 0.146 7.36 4.68 7.11
5/31/2022 12:30:00 AM 21.27 70.286 0.146 7.36 4.58 7.04
5/31/2022 12:45:00 AM 21.2 70.16 0.146 7.36 4.16 7.09
5/31/2022 1:00:00 AM 21.13 70.034 0.146 7.35 4.04 7.06
5/31/2022 1:15:00 AM 21.03 69.854 0.146 7.35 4.01 7.08
5/31/2022 1:30:00 AM 20.92 69.656 0.146 7.35 4.07 7.16
5/31/2022 1:45:00 AM 20.84 69.512 0.146 7.35 4.15 7.15
5/31/2022 2:00:00 AM 20.76 69.368 0.146 7.34 4.18 7.09
5/31/2022 2:15:00 AM 20.66 69.188 0.146 7.34 4.08 7.17
5/31/2022 2:30:00 AM 20.58 69.044 0.146 7.34 4.78 7.18
5/31/2022 2:45:00 AM 20.47 68.846 0.146 7.34 4.16 7.24
5/31/2022 3:00:00 AM 20.42 68.756 0.146 7.34 4.48 7.23
5/31/2022 3:15:00 AM 20.31 68.558 0.146 7.34 4.11 7.23
5/31/2022 3:30:00 AM 20.26 68.468 0.146 7.34 4.06 7.21
5/31/2022 3:45:00 AM 20.16 68.288 0.146 7.33 4 7.28
5/31/2022 4:00:00 AM 20.1 68.18 0.146 7.33 4.25 7.24
5/31/2022 4:15:00 AM 19.98 67.964 0.146 7.33 5.72 7.3
5/31/2022 4:30:00 AM 19.9 67.82 0.146 7.33 4.09 7.32
5/31/2022 4:45:00 AM 19.88 67.784 0.146 7.32 4.2 7.24
5/31/2022 5:00:00 AM 19.77 67.586 0.146 7.32 4.94 7.29
5/31/2022 5:15:00 AM 19.73 67.514 0.146 7.31 6.57 7.2
5/31/2022 5:30:00 AM 19.68 67.424 0.147 7.3 5.32 7.11
5/31/2022 5:45:00 AM 19.57 67.226 0.146 7.3 4.98 7.12
5/31/2022 6:00:00 AM 19.48 67.064 0.146 7.31 5.13 7.25
5/31/2022 6:15:00 AM 19.47 67.046 0.146 7.28 4.54 7.13
5/31/2022 6:30:00 AM 19.37 66.866 0.146 7.32 4.4 7.3
5/31/2022 6:45:00 AM 19.29 66.722 0.146 7.32 5.22 7.38
5/31/2022 7:00:00 AM 19.26 66.668 0.146 7.32 4.25 7.4
5/31/2022 7:15:00 AM 19.23 66.614 0.146 7.32 4.42 7.34
5/31/2022 7:30:00 AM 19.23 66.614 0.146 7.32 4.16 7.27
5/31/2022 7:45:00 AM 19.18 66.524 0.146 7.33 4.12 7.41
5/31/2022 8:00:00 AM 19.16 66.488 0.146 7.34 4.32 7.47
5/31/2022 8:15:00 AM 19.19 66.542 0.146 7.32 3.9 7.35
5/31/2022 8:30:00 AM 19.22 66.596 0.147 7.32 4.39 7.28
5/31/2022 8:45:00 AM 19.25 66.65 0.146 7.36 3.8 7.6
5/31/2022 9:00:00 AM 19.3 66.74 0.146 7.33 4.22 7.42
5/31/2022 9:15:00 AM 19.4 66.92 0.146 7.36 3.37 7.57
5/31/2022 9:30:00 AM 19.56 67.208 0.146 7.38 3.86 7.76
5/31/2022 9:45:00 AM 19.73 67.514 0.146 7.4 3.69 7.82
5/31/2022 10:00:00 AM 19.89 67.802 0.146 7.4 3.54 7.83
5/31/2022 10:15:00 AM 20.09 68.162 0.146 7.42 3.59 7.78
5/31/2022 10:30:00 AM 20.32 68.576 0.146 7.42 3.38 7.85
5/31/2022 10:45:00 AM 20.58 69.044 0.146 7.44 4.13 7.88
5/31/2022 11:00:00 AM 20.87 69.566 0.146 7.43 3.57 7.93
5/31/2022 11:15:00 AM 21.15 70.07 0.146 7.46 3.85 7.94
5/31/2022 11:30:00 AM 21.4 70.52 0.146 7.47 3.48 7.93
5/31/2022 11:45:00 AM 21.68 71.024 0.146 7.48 3.54 7.95
5/31/2022 12:00:00 PM 21.96 71.528 0.146 7.49 3.58 7.93
5/31/2022 12:15:00 PM 22.26 72.068 0.146 7.51 3.71 8
5/31/2022 12:30:00 PM 22.57 72.626 0.146 7.52 3.47 7.96
5/31/2022 12:45:00 PM 22.71 72.878 0.146 7.52 4.23 7.87
5/31/2022 1:00:00 PM 22.99 73.382 0.146 7.52 8.23 7.85
5/31/2022 1:15:00 PM 23.23 73.814 0.146 7.53 3.45 7.84
5/31/2022 1:30:00 PM 23.57 74.426 0.146 7.54 3.53 7.84
5/31/2022 1:45:00 PM 23.84 74.912 0.146 7.55 3.77 7.84
5/31/2022 2:00:00 PM 24.04 75.272 0.146 7.56 3.4 7.79
5/31/2022 2:15:00 PM 24.31 75.758 0.146 7.57 3.53 7.8
5/31/2022 2:30:00 PM 24.46 76.028 0.146 7.58 3.22 7.77
5/31/2022 2:45:00 PM 24.68 76.424 0.146 7.58 3.36 7.72
5/31/2022 3:00:00 PM 24.83 76.694 0.146 7.58 3.35 7.75
5/31/2022 3:15:00 PM 24.96 76.92799 0.146 7.58 3.84 7.61
5/31/2022 3:30:00 PM 25.04 77.07201 0.146 7.59 3.33 7.66
5/31/2022 3:45:00 PM 25.08 77.144 0.146 7.58 3.41 7.59
5/31/2022 4:00:00 PM 25.13 77.234 0.146 7.58 3.84 7.52
5/31/2022 4:15:00 PM 25.16 77.288 0.146 7.58 3.54 7.52
5/31/2022 4:30:00 PM 25.08 77.144 0.146 7.57 3.54 7.47
5/31/2022 4:45:00 PM 25.02 77.036 0.146 7.56 3.37 7.39
5/31/2022 5:00:00 PM 24.97 76.946 0.146 7.55 3.19 7.33
5/31/2022 5:15:00 PM 24.85 76.73 0.147 7.54 3.53 7.27
5/31/2022 5:30:00 PM 24.8 76.64 0.147 7.53 3.53 7.25
5/31/2022 5:45:00 PM 24.7 76.46 0.147 7.52 3.26 7.18
5/31/2022 6:00:00 PM 24.64 76.352 0.147 7.52 3.47 7.17
5/31/2022 6:15:00 PM 24.53 76.154 0.147 7.51 3.4 7.1
5/31/2022 6:30:00 PM 24.41 75.938 0.147 7.49 3.41 7.11
5/31/2022 6:45:00 PM 24.35 75.83 0.147 7.49 4.01 7.03
5/31/2022 7:00:00 PM 24.27 75.686 0.148 7.47 4.1 6.93
5/31/2022 7:15:00 PM 24.18 75.524 0.148 7.46 3.5 6.93
5/31/2022 7:30:00 PM 24.08 75.344 0.148 7.44 3.64 6.87
5/31/2022 7:45:00 PM 24.03 75.254 0.148 7.44 3.64 6.9
5/31/2022 8:00:00 PM 23.93 75.074 0.148 7.43 3.5 6.86
5/31/2022 8:15:00 PM 23.85 74.93 0.148 7.42 3.51 6.73
5/31/2022 8:30:00 PM 23.78 74.804 0.148 7.4 4.38 6.69
5/31/2022 8:45:00 PM 23.69 74.642 0.148 7.38 4.23 6.55
5/31/2022 9:00:00 PM 23.63 74.534 0.148 7.39 3.67 6.73
5/31/2022 9:15:00 PM 23.59 74.462 0.149 7.38 4.3 6.65
5/31/2022 9:30:00 PM 23.52 74.336 0.149 7.38 3.36 6.67
5/31/2022 9:45:00 PM 23.46 74.228 0.149 7.37 3.73 6.67
5/31/2022 10:00:00 PM 23.38 74.084 0.149 7.34 3.57 6.64
5/31/2022 10:15:00 PM 23.3 73.94 0.149 7.36 3.49 6.63
5/31/2022 10:30:00 PM 23.27 73.886 0.149 7.35 3.28 6.61
5/31/2022 10:45:00 PM 23.2 73.76 0.149 7.33 3.69 6.62
5/31/2022 11:00:00 PM 23.12 73.616 0.149 7.35 3.55 6.58
5/31/2022 11:15:00 PM 23.06 73.508 0.149 7.35 3.73 6.65
5/31/2022 11:30:00 PM 23.02 73.436 0.149 7.34 3.67 6.65
5/31/2022 11:45:00 PM 23 73.4 0.149 7.34 3.35 6.6
6/1/2022 12:00:00 AM 22.91 73.238 0.149 7.34 3.76 6.63
6/1/2022 12:15:00 AM 22.84 73.112 0.149 7.34 3.96 6.68
6/1/2022 12:30:00 AM 22.8 73.04 0.149 7.34 3.72 6.66
6/1/2022 12:45:00 AM 22.74 72.932 0.15 7.33 3.73 6.69
6/1/2022 1:00:00 AM 22.69 72.842 0.15 7.33 3.71 6.59
6/1/2022 1:15:00 AM 22.58 72.644 0.15 7.33 3.64 6.74
6/1/2022 1:30:00 AM 22.51 72.518 0.15 7.32 3.81 6.68
6/1/2022 1:45:00 AM 22.41 72.338 0.15 7.33 3.89 6.76
6/1/2022 2:00:00 AM 22.33 72.194 0.15 7.32 3.92 6.73
6/1/2022 2:15:00 AM 22.21 71.978 0.15 7.3 3.91 6.77
6/1/2022 2:30:00 AM 22.16 71.888 0.15 7.32 3.83 6.7
6/1/2022 2:45:00 AM 22.05 71.69 0.15 7.32 3.92 6.79
6/1/2022 3:00:00 AM 21.95 71.51 0.149 7.3 3.79 6.81
6/1/2022 3:15:00 AM 21.88 71.384 0.149 7.32 4.37 6.81
6/1/2022 3:30:00 AM 21.77 71.186 0.149 7.32 3.44 6.84
6/1/2022 3:45:00 AM 21.67 71.006 0.149 7.32 3.89 6.87
6/1/2022 4:00:00 AM 21.64 70.952 0.149 7.29 3.72 6.79
6/1/2022 4:15:00 AM 21.51 70.718 0.149 7.31 8.29 6.81
6/1/2022 4:30:00 AM 21.44 70.592 0.149 7.31 4.55 6.86
6/1/2022 4:45:00 AM 21.35 70.43 0.149 7.31 3.72 6.88
6/1/2022 5:00:00 AM 21.31 70.358 0.149 7.3 5.06 6.79
6/1/2022 5:15:00 AM 21.22 70.196 0.149 7.3 4.77 6.83
6/1/2022 5:30:00 AM 21.15 70.07 0.149 7.3 5.05 6.74
6/1/2022 5:45:00 AM 21.09 69.962 0.149 7.28 4.88 6.75
6/1/2022 6:00:00 AM 21.04 69.872 0.149 7.29 4.71 6.79
6/1/2022 6:15:00 AM 20.95 69.71 0.149 7.29 4.47 6.86
6/1/2022 6:30:00 AM 20.93 69.674 0.149 7.29 4.46 6.79
6/1/2022 6:45:00 AM 20.87 69.566 0.149 7.3 4.59 6.9
6/1/2022 7:00:00 AM 20.83 69.494 0.149 7.29 4.87 6.85
6/1/2022 7:15:00 AM 20.78 69.404 0.149 7.31 5.02 6.98
6/1/2022 7:30:00 AM 20.78 69.404 0.149 7.3 4.23 6.98
6/1/2022 7:45:00 AM 20.77 69.386 0.149 7.29 3.83 7.01
6/1/2022 8:00:00 AM 20.77 69.386 0.149 7.32 4.25 7.17
6/1/2022 8:15:00 AM 20.79 69.422 0.149 7.31 4.18 7.12
6/1/2022 8:30:00 AM 20.81 69.458 0.148 7.33 3.89 7.28
6/1/2022 8:45:00 AM 20.86 69.548 0.149 7.32 4.55 7.11
6/1/2022 9:00:00 AM 20.91 69.638 0.149 7.33 4.13 7.17
6/1/2022 9:15:00 AM 20.97 69.746 0.149 7.32 3.88 7.15
6/1/2022 9:30:00 AM 21.07 69.926 0.148 7.34 4.15 7.26
6/1/2022 9:45:00 AM 21.21 70.17799 0.148 7.36 3.62 7.37
6/1/2022 10:00:00 AM 21.44 70.592 0.148 7.39 3.26 7.58
6/1/2022 10:15:00 AM 21.61 70.898 0.148 7.4 3.65 7.6
6/1/2022 10:30:00 AM 21.82 71.276 0.148 7.42 14.28 7.65
6/1/2022 10:45:00 AM 22.05 71.69 0.148 7.43 3.85 7.66
6/1/2022 11:00:00 AM 22.28 72.104 0.148 7.45 3.44 7.66
6/1/2022 11:15:00 AM 22.53 72.554 0.148 7.45 3.53 7.72
6/1/2022 11:30:00 AM 22.74 72.932 0.148 7.47 3.24 7.66
6/1/2022 11:45:00 AM 22.97 73.346 0.148 7.47 3 7.71
6/1/2022 12:00:00 PM 23.2 73.76 0.148 7.49 3.29 7.72
6/1/2022 12:15:00 PM 23.42 74.156 0.148 7.5 3.77 7.74
6/1/2022 12:30:00 PM 23.62 74.516 0.148 7.5 3.76 7.63
6/1/2022 12:45:00 PM 23.9 75.02 0.148 7.52 3.6 7.74
6/1/2022 1:00:00 PM 24.1 75.38 0.148 7.53 3.93 7.74
6/1/2022 1:15:00 PM 24.11 75.398 0.148 7.51 3.68 7.58
6/1/2022 1:30:00 PM 24.11 75.398 0.148 7.5 3.92 7.53
6/1/2022 1:45:00 PM 24.15 75.47 0.148 7.51 3.66 7.5
6/1/2022 2:00:00 PM 24.13 75.434 0.148 7.51 3.27 7.44
6/1/2022 2:15:00 PM 24.17 75.506 0.148 7.5 3.07 7.39
6/1/2022 2:30:00 PM 24.33 75.794 0.148 7.52 3.58 7.41
6/1/2022 2:45:00 PM 24.37 75.866 0.148 7.53 3.66 7.5
6/1/2022 3:00:00 PM 24.5 76.1 0.148 7.54 3.55 7.57
6/1/2022 3:15:00 PM 24.66 76.388 0.148 7.54 3.41 7.53
6/1/2022 3:30:00 PM 24.63 76.334 0.148 7.54 3.6 7.49
6/1/2022 3:45:00 PM 24.6 76.28 0.148 7.54 3.31 7.45
6/1/2022 4:00:00 PM 24.59 76.262 0.148 7.53 3.54 7.44
6/1/2022 4:15:00 PM 24.58 76.244 0.148 7.53 3.55 7.36
6/1/2022 4:30:00 PM 24.63 76.334 0.148 7.54 3.49 7.43
6/1/2022 4:45:00 PM 24.54 76.172 0.148 7.52 3.76 7.23
6/1/2022 5:00:00 PM 24.45 76.01 0.148 7.49 3.39 7.09
6/1/2022 5:15:00 PM 24.32 75.776 0.148 7.47 3.57 6.96
6/1/2022 5:30:00 PM 24.17 75.506 0.147 7.45 4.06 6.76
6/1/2022 5:45:00 PM 24.13 75.434 0.146 7.47 4.41 7.02
6/1/2022 6:00:00 PM 24.1 75.38 0.147 7.46 4.18 6.89
6/1/2022 6:15:00 PM 24 75.2 0.146 7.45 5.05 6.84
6/1/2022 6:30:00 PM 23.91 75.038 0.146 7.43 8.76 6.79
6/1/2022 6:45:00 PM 23.81 74.858 0.147 7.42 12.02 6.7
6/1/2022 7:00:00 PM 23.7 74.66 0.145 7.42 12.61 6.71
6/1/2022 7:15:00 PM 23.53 74.354 0.145 7.41 13.54 6.69
6/1/2022 7:30:00 PM 23.45 74.21 0.143 7.42 15.63 6.8
6/1/2022 7:45:00 PM 23.36 74.048 0.143 7.42 12.2 6.77
6/1/2022 8:00:00 PM 23.31 73.958 0.143 7.4 20.58 6.66
6/1/2022 8:15:00 PM 23.25 73.85 0.143 7.41 57.16 6.81
6/1/2022 8:30:00 PM 23.2 73.76 0.142 7.4 43.71 6.79
6/1/2022 8:45:00 PM 23.13 73.634 0.142 7.36 44.81 6.7
6/1/2022 9:00:00 PM 23.03 73.454 0.142 7.38 39.85 6.71
6/1/2022 9:15:00 PM 22.98 73.364 0.142 7.37 31.41 6.72
6/1/2022 9:30:00 PM 22.94 73.292 0.142 7.37 31.14 6.71
6/1/2022 9:45:00 PM 22.91 73.238 0.143 7.37 28.12 6.74
6/1/2022 10:00:00 PM 22.88 73.184 0.144 7.38 27 6.83
6/1/2022 10:15:00 PM 22.85 73.13 0.143 7.38 26.35 6.75
6/1/2022 10:30:00 PM 22.82 73.076 0.143 7.35 26.17 6.73
6/1/2022 10:45:00 PM 22.73 72.914 0.143 7.38 22.19 6.81
6/1/2022 11:00:00 PM 22.68 72.824 0.143 7.38 24.17 6.81
6/1/2022 11:15:00 PM 22.61 72.698 0.143 7.38 18.38 6.87
6/1/2022 11:30:00 PM 22.52 72.536 0.143 7.39 17.96 6.97
6/1/2022 11:45:00 PM 22.47 72.446 0.143 7.39 15.22 6.97
6/2/2022 12:00:00 AM 22.37 72.266 0.143 7.4 17.88 7.1
6/2/2022 12:15:00 AM 22.32 72.176 0.143 7.4 19.68 6.96
6/2/2022 12:30:00 AM 22.22 71.996 0.142 7.41 17.68 7.14
6/2/2022 12:45:00 AM 22.1 71.78 0.142 7.41 17.12 7.21
6/2/2022 1:00:00 AM 21.98 71.564 0.142 7.42 18.1 7.3
6/2/2022 1:15:00 AM 21.99 71.582 0.143 7.41 16.24 7.19
6/2/2022 1:30:00 AM 21.91 71.438 0.143 7.41 16.25 7.21
6/2/2022 1:45:00 AM 21.83 71.294 0.143 7.42 15.01 7.3
6/2/2022 2:00:00 AM 21.8 71.24 0.144 7.43 15.04 7.32
6/2/2022 2:15:00 AM 21.75 71.15 0.144 7.44 14.36 7.42
6/2/2022 2:30:00 AM 21.74 71.132 0.144 7.45 17.75 7.41
6/2/2022 2:45:00 AM 21.75 71.15 0.144 7.47 18.66 7.54
6/2/2022 3:00:00 AM 21.8 71.24 0.144 7.5 17.36 7.62
6/2/2022 3:15:00 AM 21.87 71.366 0.144 7.51 22.87 7.62
6/2/2022 3:30:00 AM 22.03 71.654 0.144 7.53 26.22 7.7
6/2/2022 3:45:00 AM 22.14 71.852 0.144 7.54 24.66 7.72
6/2/2022 4:00:00 AM 22.22 71.996 0.144 7.54 25.65 7.68
6/2/2022 4:15:00 AM 22.28 72.104 0.144 7.54 23.63 7.67
6/2/2022 4:30:00 AM 22.33 72.194 0.145 7.54 18.55 7.67
6/2/2022 4:45:00 AM 22.34 72.212 0.145 7.54 20.21 7.67
6/2/2022 5:00:00 AM 22.31 72.158 0.145 7.53 17.3 7.65
6/2/2022 5:15:00 AM 22.27 72.086 0.145 7.52 19.55 7.68
6/2/2022 5:30:00 AM 22.21 71.978 0.146 7.53 19.49 7.69
6/2/2022 5:45:00 AM 22.15 71.87 0.146 7.53 19.31 7.7
6/2/2022 6:00:00 AM 22.08 71.744 0.146 7.52 18.54 7.69
6/2/2022 6:15:00 AM 22.02 71.636 0.146 7.51 16.19 7.69
6/2/2022 6:30:00 AM 21.96 71.528 0.145 7.51 16.08 7.68
6/2/2022 6:45:00 AM 21.92 71.456 0.145 7.49 14.77 7.65
6/2/2022 7:00:00 AM 21.85 71.33 0.145 7.51 14.82 7.69
6/2/2022 7:15:00 AM 21.81 71.258 0.144 7.51 13.96 7.74
6/2/2022 7:30:00 AM 21.79 71.222 0.144 7.52 11.88 7.75
6/2/2022 7:45:00 AM 21.75 71.15 0.144 7.53 13.21 7.76
6/2/2022 8:00:00 AM 21.73 71.114 0.144 7.53 11.04 7.76
6/2/2022 8:15:00 AM 21.69 71.042 0.144 7.53 13.03 7.78
6/2/2022 8:30:00 AM 21.68 71.024 0.144 7.54 11.35 7.83
6/2/2022 8:45:00 AM 21.69 71.042 0.144 7.55 11.84 7.85
6/2/2022 9:00:00 AM 21.69 71.042 0.144 7.56 11.59 7.9
6/2/2022 9:15:00 AM 21.67 71.006 0.144 7.57 10.46 7.91
6/2/2022 9:30:00 AM 21.66 70.988 0.144 7.58 12.77 7.95
6/2/2022 9:45:00 AM 21.66 70.988 0.144 7.59 11.91 8
6/2/2022 10:00:00 AM 21.63 70.934 0.144 7.58 11.81 7.94
6/2/2022 10:15:00 AM 21.6 70.88 0.144 7.59 11.18 7.94
6/2/2022 10:30:00 AM 21.58 70.844 0.143 7.59 11.73 7.96
6/2/2022 10:45:00 AM 21.6 70.88 0.143 7.59 10.02 7.97
6/2/2022 11:00:00 AM 21.64 70.952 0.143 7.6 11.79 8.02
6/2/2022 11:15:00 AM 21.71 71.078 0.143 7.61 11.36 8.08
6/2/2022 11:30:00 AM 21.72 71.096 0.143 7.62 13.24 8.08
6/2/2022 11:45:00 AM 21.74 71.132 0.143 7.63 13.79 8.13
6/2/2022 12:00:00 PM 21.75 71.15 0.143 7.63 12.34 8.15
6/2/2022 12:15:00 PM 21.73 71.114 0.143 7.63 11.07 8.12
6/2/2022 12:30:00 PM 21.7 71.06 0.143 7.63 12.4 8.15
6/2/2022 12:45:00 PM 21.69 71.042 0.143 7.64 12.03 8.12
6/2/2022 1:00:00 PM 21.71 71.078 0.143 7.64 13.11 8.11
6/2/2022 1:15:00 PM 21.72 71.096 0.143 7.63 13.24 8.06
6/2/2022 1:30:00 PM 21.73 71.114 0.142 7.65 11.8 8.12
6/2/2022 1:45:00 PM 21.7 71.06 0.142 7.65 13.89 8.07
6/2/2022 2:00:00 PM 21.67 71.006 0.142 7.63 13 8.04
6/2/2022 2:15:00 PM 21.67 71.006 0.142 7.63 11.98 8.02
6/2/2022 2:30:00 PM 21.72 71.096 0.142 7.63 11.42 8.09
6/2/2022 2:45:00 PM 21.75 71.15 0.142 7.64 11.21 8.04
6/2/2022 3:00:00 PM 21.79 71.222 0.141 7.64 12.12 8.05
6/2/2022 3:15:00 PM 21.85 71.33 0.141 7.65 10.28 8.05
6/2/2022 3:30:00 PM 21.88 71.384 0.141 7.66 9.65 8.07
6/2/2022 3:45:00 PM 21.91 71.438 0.141 7.65 20.16 8.06
6/2/2022 4:00:00 PM 21.94 71.492 0.14 7.66 10.55 8.07
6/2/2022 4:15:00 PM 21.96 71.528 0.14 7.66 9.45 8.06
6/2/2022 4:30:00 PM 21.97 71.546 0.14 7.66 11.04 8.05
6/2/2022 4:45:00 PM 21.95 71.51 0.14 7.66 10.2 8.04
6/2/2022 5:00:00 PM 21.96 71.528 0.14 7.65 9.16 8.03
6/2/2022 5:15:00 PM 21.96 71.528 0.14 7.65 9.29 7.96
6/2/2022 5:30:00 PM 21.95 71.51 0.14 7.64 9.56 7.92
6/2/2022 5:45:00 PM 21.95 71.51 0.139 7.64 9.69 7.98
6/2/2022 6:00:00 PM 21.94 71.492 0.139 7.63 9.37 7.92
6/2/2022 6:15:00 PM 21.92 71.456 0.139 7.62 8.72 7.86
6/2/2022 6:30:00 PM 21.89 71.402 0.139 7.6 9.17 7.84
6/2/2022 6:45:00 PM 21.84 71.312 0.139 7.61 9.63 7.83
6/2/2022 7:00:00 PM 21.79 71.222 0.139 7.59 8.94 7.75
6/2/2022 7:15:00 PM 21.73 71.114 0.139 7.58 8.8 7.73
6/2/2022 7:30:00 PM 21.68 71.024 0.138 7.57 8.93 7.73
6/2/2022 7:45:00 PM 21.63 70.934 0.138 7.56 8.36 7.68
6/2/2022 8:00:00 PM 21.55 70.79 0.138 7.53 9.39 7.69
6/2/2022 8:15:00 PM 21.49 70.682 0.138 7.54 8.48 7.66
6/2/2022 8:30:00 PM 21.46 70.628 0.138 7.53 9 7.58
6/2/2022 8:45:00 PM 21.39 70.502 0.138 7.52 8.44 7.59
6/2/2022 9:00:00 PM 21.34 70.412 0.138 7.51 8.93 7.59
6/2/2022 9:15:00 PM 21.28 70.304 0.138 7.5 8.26 7.55
6/2/2022 9:30:00 PM 21.22 70.196 0.138 7.49 9 7.56
6/2/2022 9:45:00 PM 21.17 70.106 0.138 7.49 8.33 7.57
6/2/2022 10:00:00 PM 21.12 70.016 0.138 7.48 8.34 7.56
6/2/2022 10:15:00 PM 21.06 69.908 0.138 7.48 9.16 7.56
6/2/2022 10:30:00 PM 21.03 69.854 0.138 7.47 9.74 7.55
6/2/2022 10:45:00 PM 20.98 69.764 0.138 7.47 8.9 7.54
6/2/2022 11:00:00 PM 20.94 69.692 0.138 7.47 9.65 7.55
6/2/2022 11:15:00 PM 20.89 69.602 0.138 7.44 8.78 7.57
6/2/2022 11:30:00 PM 20.85 69.53 0.138 7.46 8.74 7.57
6/2/2022 11:45:00 PM 20.82 69.476 0.137 7.45 9.47 7.54
6/3/2022 12:00:00 AM 20.77 69.386 0.137 7.45 8.87 7.57
6/3/2022 12:15:00 AM 20.73 69.314 0.137 7.45 8.66 7.56
6/3/2022 12:30:00 AM 20.7 69.26 0.137 7.45 8.44 7.54
6/3/2022 12:45:00 AM 20.65 69.17 0.137 7.45 9 7.58
6/3/2022 1:00:00 AM 20.63 69.134 0.137 7.44 7.71 7.54
6/3/2022 1:15:00 AM 20.57 69.026 0.137 7.44 9.1 7.57
6/3/2022 1:30:00 AM 20.54 68.972 0.137 7.44 8.73 7.56
6/3/2022 1:45:00 AM 20.51 68.918 0.137 7.42 9 7.53
6/3/2022 2:00:00 AM 20.45 68.81 0.137 7.44 8.32 7.57
6/3/2022 2:15:00 AM 20.43 68.774 0.137 7.43 8.51 7.56
6/3/2022 2:30:00 AM 20.39 68.702 0.137 7.43 7.87 7.54
6/3/2022 2:45:00 AM 20.37 68.666 0.137 7.42 9.19 7.5
6/3/2022 3:00:00 AM 20.32 68.576 0.137 7.43 8.24 7.57
6/3/2022 3:15:00 AM 20.28 68.504 0.137 7.42 8.26 7.56
6/3/2022 3:30:00 AM 20.25 68.45 0.137 7.42 9.09 7.54
6/3/2022 3:45:00 AM 20.21 68.378 0.137 7.42 7.92 7.53
6/3/2022 4:00:00 AM 20.18 68.324 0.137 7.42 8.6 7.56
6/3/2022 4:15:00 AM 20.14 68.252 0.137 7.42 8.59 7.55
6/3/2022 4:30:00 AM 20.1 68.18 0.137 7.41 7.83 7.53
6/3/2022 4:45:00 AM 20.06 68.108 0.137 7.39 7.99 7.55
6/3/2022 5:00:00 AM 20.01 68.018 0.137 7.42 10.35 7.54
6/3/2022 5:15:00 AM 19.96 67.92799 0.137 7.42 8.71 7.57
6/3/2022 5:30:00 AM 19.93 67.874 0.137 7.41 9.69 7.53
6/3/2022 5:45:00 AM 19.88 67.784 0.137 7.41 8.29 7.54
6/3/2022 6:00:00 AM 19.82 67.676 0.137 7.41 8.56 7.6
6/3/2022 6:15:00 AM 19.77 67.586 0.137 7.42 8.34 7.59
6/3/2022 6:30:00 AM 19.68 67.424 0.137 7.41 8.08 7.66
6/3/2022 6:45:00 AM 19.63 67.334 0.137 7.38 9.45 7.58
6/3/2022 7:00:00 AM 19.6 67.28 0.137 7.38 8.03 7.51
6/3/2022 7:15:00 AM 19.52 67.136 0.137 7.39 7.85 7.64
6/3/2022 7:30:00 AM 19.47 67.046 0.137 7.4 8.07 7.62
6/3/2022 7:45:00 AM 19.39 66.902 0.137 7.4 7.43 7.69
6/3/2022 8:00:00 AM 19.37 66.866 0.137 7.4 9.57 7.66
6/3/2022 8:15:00 AM 19.31 66.758 0.137 7.41 7.85 7.62
6/3/2022 8:30:00 AM 19.31 66.758 0.137 7.41 6.85 7.69
6/3/2022 8:45:00 AM 19.3 66.74 0.137 7.41 9.02 7.65
6/3/2022 9:00:00 AM 19.32 66.776 0.137 7.43 9.41 7.82
6/3/2022 9:15:00 AM 19.35 66.83 0.137 7.44 7.03 7.93
6/3/2022 9:30:00 AM 19.41 66.938 0.137 7.44 7.2 7.9
6/3/2022 9:45:00 AM 19.49 67.082 0.137 7.45 6.37 8
6/3/2022 10:00:00 AM 19.6 67.28 0.137 7.46 6.81 7.98
6/3/2022 10:15:00 AM 19.7 67.46 0.137 7.46 7.9 7.97
6/3/2022 10:30:00 AM 19.79 67.622 0.137 7.48 6.75 7.98
6/3/2022 10:45:00 AM 19.97 67.946 0.137 7.5 6.49 8.07
6/3/2022 11:00:00 AM 20.09 68.162 0.137 7.51 6.15 8.07
6/3/2022 11:15:00 AM 20.27 68.486 0.137 7.52 6.62 8.13
6/3/2022 11:30:00 AM 20.52 68.936 0.137 7.54 6.05 8.16
6/3/2022 11:45:00 AM 20.74 69.332 0.137 7.56 5.99 8.2
6/3/2022 12:00:00 PM 21 69.8 0.137 7.56 5.87 8.15
6/3/2022 12:15:00 PM 21.28 70.304 0.137 7.58 5.94 8.15
6/3/2022 12:30:00 PM 21.5 70.7 0.137 7.58 6.01 8.21
6/3/2022 12:45:00 PM 21.85 71.33 0.137 7.6 5.9 8.18
6/3/2022 1:00:00 PM 22.14 71.852 0.137 7.61 5.57 8.18
6/3/2022 1:15:00 PM 22.41 72.338 0.137 7.63 6.84 8.22
6/3/2022 1:30:00 PM 22.63 72.734 0.137 7.64 6.73 8.19
6/3/2022 1:45:00 PM 22.83 73.094 0.137 7.65 5.64 8.16
6/3/2022 2:00:00 PM 22.97 73.346 0.137 7.66 5.81 8.16
6/3/2022 2:15:00 PM 23.12 73.616 0.137 7.67 5.9 8.11
6/3/2022 2:30:00 PM 23.23 73.814 0.137 7.67 5.66 8.07
6/3/2022 2:45:00 PM 23.33 73.994 0.137 7.68 5.89 8.11
6/3/2022 3:00:00 PM 23.43 74.174 0.137 7.68 7.47 8.08
6/3/2022 3:15:00 PM 23.47 74.246 0.137 7.68 5.61 8.05
6/3/2022 3:30:00 PM 23.51 74.318 0.137 7.68 5.59 8.01
6/3/2022 3:45:00 PM 23.47 74.246 0.138 7.67 5.19 7.92
6/3/2022 4:00:00 PM 23.4 74.12 0.138 7.65 5.37 7.88
6/3/2022 4:15:00 PM 23.32 73.976 0.138 7.65 5.38 7.82
6/3/2022 4:30:00 PM 23.16 73.688 0.138 7.64 5.3 7.79
6/3/2022 4:45:00 PM 23.07 73.526 0.138 7.63 5.84 7.75
6/3/2022 5:00:00 PM 23 73.4 0.138 7.62 5.41 7.7
6/3/2022 5:15:00 PM 22.92 73.256 0.138 7.61 5.02 7.63
6/3/2022 5:30:00 PM 22.79 73.022 0.138 7.58 5.79 7.66
6/3/2022 5:45:00 PM 22.68 72.824 0.138 7.59 5.62 7.61
6/3/2022 6:00:00 PM 22.59 72.662 0.138 7.57 5.56 7.6
6/3/2022 6:15:00 PM 22.47 72.446 0.139 7.56 5.6 7.51
6/3/2022 6:30:00 PM 22.36 72.248 0.139 7.54 6.21 7.46
6/3/2022 6:45:00 PM 22.31 72.158 0.139 7.54 6.04 7.45
6/3/2022 7:00:00 PM 22.22 71.996 0.139 7.53 5.63 7.46
6/3/2022 7:15:00 PM 22.13 71.834 0.139 7.52 5.99 7.45
6/3/2022 7:30:00 PM 22.07 71.726 0.139 7.51 5.8 7.37
6/3/2022 7:45:00 PM 21.94 71.492 0.139 7.5 5.68 7.37
6/3/2022 8:00:00 PM 21.86 71.348 0.139 7.49 5.53 7.33
6/3/2022 8:15:00 PM 21.77 71.186 0.139 7.48 5.33 7.29
6/3/2022 8:30:00 PM 21.68 71.024 0.139 7.47 5.23 7.22
6/3/2022 8:45:00 PM 21.57 70.826 0.139 7.46 6.28 7.23
6/3/2022 9:00:00 PM 21.54 70.772 0.139 7.45 5.72 7.19
6/3/2022 9:15:00 PM 21.36 70.448 0.139 7.45 6.17 7.29
6/3/2022 9:30:00 PM 21.27 70.286 0.14 7.44 5.41 7.28
6/3/2022 9:45:00 PM 21.19 70.142 0.14 7.43 5.6 7.22
6/3/2022 10:00:00 PM 21.04 69.872 0.14 7.42 5.67 7.26
6/3/2022 10:15:00 PM 20.9 69.62 0.14 7.43 5.64 7.31
6/3/2022 10:30:00 PM 20.77 69.386 0.14 7.43 5.83 7.36
6/3/2022 10:45:00 PM 20.7 69.26 0.14 7.42 5.58 7.3
6/3/2022 11:00:00 PM 20.59 69.062 0.14 7.41 5.39 7.24
6/3/2022 11:15:00 PM 20.4 68.72 0.14 7.42 6.13 7.41
6/3/2022 11:30:00 PM 20.33 68.594 0.14 7.41 5.86 7.33
6/3/2022 11:45:00 PM 20.18 68.324 0.14 7.41 5.19 7.42
6/4/2022 12:00:00 AM 20.1 68.18 0.14 7.4 4.93 7.35
6/4/2022 12:15:00 AM 19.93 67.874 0.14 7.41 6.12 7.45
6/4/2022 12:30:00 AM 19.87 67.766 0.14 7.39 4.97 7.38
6/4/2022 12:45:00 AM 19.67 67.406 0.14 7.4 5.46 7.52
6/4/2022 1:00:00 AM 19.56 67.208 0.14 7.4 5.37 7.55
6/4/2022 1:15:00 AM 19.48 67.064 0.14 7.4 5.36 7.53
6/4/2022 1:30:00 AM 19.39 66.902 0.14 7.39 5.53 7.5
6/4/2022 1:45:00 AM 19.32 66.776 0.14 7.39 5.42 7.48
6/4/2022 2:00:00 AM 19.21 66.578 0.14 7.37 5.63 7.53
6/4/2022 2:15:00 AM 19.04 66.272 0.14 7.37 5.51 7.61
6/4/2022 2:30:00 AM 19 66.2 0.14 7.35 5.86 7.57
6/4/2022 2:45:00 AM 18.85 65.93 0.14 7.34 5.51 7.66
6/4/2022 3:00:00 AM 18.76 65.768 0.14 7.35 5.86 7.67
6/4/2022 3:15:00 AM 18.7 65.66 0.14 7.35 5.92 7.66
6/4/2022 3:30:00 AM 18.66 65.588 0.14 7.34 5.36 7.58
6/4/2022 3:45:00 AM 18.5 65.3 0.14 7.35 5.1 7.72
6/4/2022 4:00:00 AM 18.48 65.264 0.14 7.34 5.38 7.68
6/4/2022 4:15:00 AM 18.42 65.156 0.14 7.34 5.56 7.64
6/4/2022 4:30:00 AM 18.32 64.976 0.14 7.34 5.54 7.67
6/4/2022 4:45:00 AM 18.24 64.832 0.14 7.34 5.13 7.69
6/4/2022 5:00:00 AM 18.14 64.652 0.14 7.34 5.85 7.73
6/4/2022 5:15:00 AM 18.06 64.508 0.14 7.34 5.36 7.76
6/4/2022 5:30:00 AM 17.99 64.382 0.14 7.34 5.3 7.78
6/4/2022 5:45:00 AM 17.96 64.328 0.141 7.34 5.55 7.66
6/4/2022 6:00:00 AM 17.87 64.166 0.141 7.34 5.45 7.68
6/4/2022 6:15:00 AM 17.79 64.022 0.141 7.34 5.38 7.76
6/4/2022 6:30:00 AM 17.82 64.076 0.141 7.31 6.01 7.66
6/4/2022 6:45:00 AM 17.7 63.86 0.141 7.34 4.96 7.71
6/4/2022 7:00:00 AM 17.72 63.896 0.141 7.34 5.08 7.64
6/4/2022 7:15:00 AM 17.61 63.698 0.141 7.36 5.34 7.82
6/4/2022 7:30:00 AM 17.61 63.698 0.141 7.36 4.9 7.83
6/4/2022 7:45:00 AM 17.6 63.68 0.141 7.36 5.33 7.93
6/4/2022 8:00:00 AM 17.59 63.662 0.141 7.38 9.17 7.93
6/4/2022 8:15:00 AM 17.64 63.752 0.141 7.38 4.48 7.94
6/4/2022 8:30:00 AM 17.69 63.842 0.141 7.38 4.27 7.85
6/4/2022 8:45:00 AM 17.73 63.914 0.141 7.39 4.68 7.93
6/4/2022 9:00:00 AM 17.75 63.95 0.141 7.4 4.34 7.98
6/4/2022 9:15:00 AM 17.84 64.112 0.141 7.41 4.51 8
6/4/2022 9:30:00 AM 17.98 64.364 0.141 7.43 4.71 8.17
6/4/2022 9:45:00 AM 18.12 64.616 0.141 7.42 4.48 8.14
6/4/2022 10:00:00 AM 18.33 64.994 0.141 7.46 4.26 8.22
6/4/2022 10:15:00 AM 18.48 65.264 0.141 7.47 4.06 8.24
6/4/2022 10:30:00 AM 18.69 65.642 0.141 7.47 4.46 8.28
6/4/2022 10:45:00 AM 18.93 66.074 0.141 7.5 3.89 8.25
6/4/2022 11:00:00 AM 19.14 66.452 0.141 7.48 3.63 8.27
6/4/2022 11:15:00 AM 19.43 66.974 0.141 7.52 4 8.31
6/4/2022 11:30:00 AM 19.71 67.478 0.141 7.53 4.14 8.34
6/4/2022 11:45:00 AM 19.99 67.982 0.141 7.54 4.08 8.32
6/4/2022 12:00:00 PM 20.26 68.468 0.141 7.55 3.9 8.3
6/4/2022 12:15:00 PM 20.65 69.17 0.141 7.57 4.24 8.36
6/4/2022 12:30:00 PM 20.91 69.638 0.141 7.55 3.75 8.31
6/4/2022 12:45:00 PM 21.26 70.268 0.141 7.59 3.84 8.3
6/4/2022 1:00:00 PM 21.59 70.862 0.141 7.59 4.34 8.27
6/4/2022 1:15:00 PM 21.91 71.438 0.141 7.61 4.09 8.25
6/4/2022 1:30:00 PM 22.18 71.924 0.141 7.61 3.79 8.24
6/4/2022 1:45:00 PM 22.48 72.464 0.141 7.62 3.68 8.24
6/4/2022 2:00:00 PM 22.72 72.896 0.141 7.63 4.04 8.21
6/4/2022 2:15:00 PM 22.95 73.31 0.142 7.64 3.68 8.18
6/4/2022 2:30:00 PM 23.1 73.58 0.142 7.65 4.9 8.17
6/4/2022 2:45:00 PM 23.24 73.832 0.142 7.65 3.92 8.08
6/4/2022 3:00:00 PM 23.37 74.066 0.142 7.66 3.99 8.11

These are provisional data and have not been subject to a quality assurance process, but rather are the raw data reported by the instrument.
H: value is above sensor operating range
L: value is below sensor operating range
Offline: station is not reporting data
NC: parameter is not collected at site

Data Availability & Limitations

Uncertainty and potential for error can be associated with environmental monitoring data. Provisional data have not been subject to a quality assurance process, but rather are the raw data reported by the instrument. Data users are cautioned to consider carefully the provisional nature of the information before using it for decisions that concern personal or public safety or the conduct of business that involves substantial monetary or operational consequences.

Approved data are currently available by request by emailing: srbc@srbc.net. Approved data have been subject to a quality assurance process to correct for equipment or fouling drift. Data recorded during equipment malfunctions have been removed.

View Historical Stations that have been discontinued.